CPA292 LIRF-VHHH
Flight info
| Callsign | CPA292 |
|---|---|
| Flight time | N/A |
| Altitude | 34000 |
| Route | OKUNO L5 ATRUP/N0474F340 DCT XOLTA/N0472F350 DCT BUNEX DCT GINAM DCT NISVA Q13 UDROS UM859 KARDE UN644 ROLIN DCT FOQUS DCT LAGAS DCT DISKA/N0478F370 M737 VERCA M747 SUBUT T916 BALUN/K0878F370 T916 KUNAS N193 SR L163 TISIB L141 TADOT/K0865F390 L141 KAMUD/K0865S1190 W186 SADAN Y1 OMBON W245 OVRAL B330 IGUNI/K0874S1250 B330 KWE W181 DUDIT A599 POU R473 SIERA |
| Aircraft | A343/H-SDE2E3FGHIJ4J5M1RWXY/LB1D1 |
Departure
| Time | 2026-05-07 22:22 |
|---|---|
| Airport | Rome–Fiumicino Leonardo da Vinci International Airport (LIRF) |
Arrival
| Time | N/A |
|---|---|
| Airport | Hong Kong International Airport (VHHH) |
| Time | Latitude | Longitude | Altitude | Speed | Heading |
|---|---|---|---|---|---|
| 2026-05-07 21:52 | 41.79845 | 12.24655 | 18 ft | 0 kts | 160° |
| 2026-05-07 22:11 | 41.79868 | 12.24644 | 19 ft | 4 kts | 160° |
| 2026-05-07 22:11 | 41.79892 | 12.24632 | 20 ft | 2 kts | 159° |
| 2026-05-07 22:11 | 41.79905 | 12.24625 | 20 ft | 4 kts | 153° |
| 2026-05-07 22:11 | 41.79926 | 12.24605 | 21 ft | 4 kts | 126° |
| 2026-05-07 22:12 | 41.79936 | 12.24574 | 21 ft | 4 kts | 84° |
| 2026-05-07 22:12 | 41.79937 | 12.24571 | 21 ft | 2 kts | 70° |
| 2026-05-07 22:12 | 41.79938 | 12.24574 | 21 ft | 0 kts | 70° |
| 2026-05-07 22:15 | 41.79940 | 12.24580 | 22 ft | 4 kts | 70° |
| 2026-05-07 22:15 | 41.79963 | 12.24663 | 18 ft | 15 kts | 70° |
| 2026-05-07 22:16 | 41.79993 | 12.24767 | 18 ft | 13 kts | 65° |
| 2026-05-07 22:16 | 41.80082 | 12.24782 | 18 ft | 16 kts | 351° |
| 2026-05-07 22:16 | 41.80175 | 12.24790 | 18 ft | 9 kts | 58° |
| 2026-05-07 22:16 | 41.80199 | 12.24877 | 17 ft | 10 kts | 69° |
| 2026-05-07 22:17 | 41.80212 | 12.24966 | 17 ft | 10 kts | 85° |
| 2026-05-07 22:17 | 41.80219 | 12.25090 | 17 ft | 17 kts | 83° |
| 2026-05-07 22:17 | 41.80261 | 12.25271 | 18 ft | 23 kts | 69° |
| 2026-05-07 22:17 | 41.80319 | 12.25471 | 19 ft | 22 kts | 69° |
| 2026-05-07 22:18 | 41.80369 | 12.25659 | 19 ft | 21 kts | 70° |
| 2026-05-07 22:18 | 41.80462 | 12.26014 | 19 ft | 19 kts | 70° |
| 2026-05-07 22:18 | 41.80506 | 12.26178 | 21 ft | 18 kts | 70° |
| 2026-05-07 22:19 | 41.80548 | 12.26330 | 22 ft | 17 kts | 69° |
| 2026-05-07 22:19 | 41.80599 | 12.26506 | 19 ft | 26 kts | 69° |
| 2026-05-07 22:19 | 41.80672 | 12.26766 | 18 ft | 32 kts | 69° |
| 2026-05-07 22:19 | 41.80741 | 12.27010 | 17 ft | 12 kts | 64° |
| 2026-05-07 22:20 | 41.80801 | 12.27035 | 17 ft | 9 kts | 359° |
| 2026-05-07 22:20 | 41.80858 | 12.27020 | 18 ft | 8 kts | 340° |
| 2026-05-07 22:20 | 41.80910 | 12.26995 | 17 ft | 8 kts | 339° |
| 2026-05-07 22:20 | 41.80957 | 12.26944 | 16 ft | 9 kts | 287° |
| 2026-05-07 22:21 | 41.80943 | 12.26868 | 17 ft | 8 kts | 251° |
| 2026-05-07 22:21 | 41.80892 | 12.26689 | 17 ft | 43 kts | 249° |
| 2026-05-07 22:21 | 41.80732 | 12.26102 | 28 ft | 90 kts | 250° |
| 2026-05-07 22:21 | 41.80461 | 12.25127 | 20 ft | 132 kts | 249° |
| 2026-05-07 22:22 | 41.80101 | 12.23830 | 48 ft | 161 kts | 251° |
| 2026-05-07 22:22 | 41.79779 | 12.22484 | 630 ft | 147 kts | 250° |
| 2026-05-07 22:22 | 41.79366 | 12.21165 | 815 ft | 164 kts | 246° |
| 2026-05-07 22:22 | 41.78709 | 12.19881 | 1091 ft | 174 kts | 226° |
| 2026-05-07 22:23 | 41.77749 | 12.18798 | 1389 ft | 185 kts | 219° |
| 2026-05-07 22:23 | 41.76730 | 12.17698 | 1882 ft | 192 kts | 218° |
| 2026-05-07 22:23 | 41.75679 | 12.16567 | 2290 ft | 193 kts | 218° |
| 2026-05-07 22:23 | 41.74528 | 12.15701 | 2490 ft | 196 kts | 185° |
| 2026-05-07 22:24 | 41.73173 | 12.16010 | 2695 ft | 206 kts | 158° |
| 2026-05-07 22:24 | 41.71756 | 12.16612 | 2957 ft | 223 kts | 163° |
| 2026-05-07 22:24 | 41.70151 | 12.17036 | 3155 ft | 247 kts | 170° |
| 2026-05-07 22:24 | 41.68389 | 12.17275 | 3594 ft | 259 kts | 174° |
| 2026-05-07 22:25 | 41.66596 | 12.17407 | 4235 ft | 264 kts | 176° |
| 2026-05-07 22:25 | 41.64731 | 12.17491 | 4951 ft | 266 kts | 176° |
| 2026-05-07 22:25 | 41.62907 | 12.17549 | 5669 ft | 266 kts | 178° |
| 2026-05-07 22:25 | 41.61059 | 12.17595 | 6404 ft | 266 kts | 179° |
| 2026-05-07 22:26 | 41.59200 | 12.17655 | 7083 ft | 267 kts | 175° |
| 2026-05-07 22:26 | 41.57382 | 12.18199 | 7687 ft | 272 kts | 155° |
| 2026-05-07 22:26 | 41.55876 | 12.19728 | 8292 ft | 277 kts | 129° |
| 2026-05-07 22:26 | 41.55039 | 12.22045 | 8936 ft | 282 kts | 108° |
| 2026-05-07 22:27 | 41.54558 | 12.24600 | 9531 ft | 286 kts | 104° |
| 2026-05-07 22:27 | 41.54117 | 12.27201 | 10107 ft | 290 kts | 104° |
| 2026-05-07 22:27 | 41.53661 | 12.29882 | 10390 ft | 304 kts | 104° |
| 2026-05-07 22:27 | 41.53179 | 12.32688 | 10663 ft | 317 kts | 104° |
| 2026-05-07 22:28 | 41.52772 | 12.35641 | 10916 ft | 331 kts | 96° |
| 2026-05-07 22:28 | 41.52931 | 12.38771 | 11152 ft | 347 kts | 77° |
| 2026-05-07 22:28 | 41.53918 | 12.41773 | 11361 ft | 363 kts | 56° |
| 2026-05-07 22:28 | 41.55706 | 12.44204 | 11613 ft | 376 kts | 34° |
| 2026-05-07 22:29 | 41.58099 | 12.45646 | 12024 ft | 383 kts | 14° |
| 2026-05-07 22:29 | 41.60680 | 12.46634 | 12486 ft | 388 kts | 20° |
| 2026-05-07 22:29 | 41.63174 | 12.48040 | 13004 ft | 391 kts | 24° |
| 2026-05-07 22:29 | 41.65659 | 12.49563 | 13555 ft | 395 kts | 25° |
| 2026-05-07 22:30 | 41.68156 | 12.51112 | 14048 ft | 398 kts | 25° |
| 2026-05-07 22:30 | 41.70685 | 12.52684 | 14498 ft | 402 kts | 25° |
| 2026-05-07 22:30 | 41.73238 | 12.54273 | 14956 ft | 407 kts | 24° |
| 2026-05-07 22:30 | 41.75816 | 12.55877 | 15397 ft | 411 kts | 24° |
| 2026-05-07 22:31 | 41.78419 | 12.57497 | 15870 ft | 414 kts | 24° |
| 2026-05-07 22:31 | 41.80971 | 12.59293 | 16321 ft | 418 kts | 32° |
| 2026-05-07 22:31 | 41.83399 | 12.61481 | 16787 ft | 421 kts | 34° |
| 2026-05-07 22:31 | 41.85806 | 12.63754 | 17234 ft | 425 kts | 34° |
| 2026-05-07 22:32 | 41.88233 | 12.66051 | 17683 ft | 429 kts | 34° |
| 2026-05-07 22:32 | 41.90681 | 12.68364 | 18131 ft | 432 kts | 34° |
| 2026-05-07 22:32 | 41.93147 | 12.70691 | 18568 ft | 435 kts | 34° |
| 2026-05-07 22:32 | 41.95627 | 12.73032 | 18978 ft | 437 kts | 34° |
| 2026-05-07 22:33 | 41.98130 | 12.75395 | 19416 ft | 440 kts | 34° |
| 2026-05-07 22:33 | 42.00640 | 12.77768 | 19812 ft | 443 kts | 34° |
| 2026-05-07 22:33 | 42.03032 | 12.80380 | 20238 ft | 446 kts | 44° |
| 2026-05-07 22:33 | 42.04984 | 12.83635 | 20642 ft | 449 kts | 57° |
| 2026-05-07 22:34 | 42.06574 | 12.87253 | 21030 ft | 452 kts | 60° |
| 2026-05-07 22:34 | 42.08115 | 12.90952 | 21447 ft | 454 kts | 60° |
| 2026-05-07 22:34 | 42.09663 | 12.94672 | 21827 ft | 457 kts | 60° |
| 2026-05-07 22:34 | 42.11223 | 12.98408 | 22216 ft | 460 kts | 60° |
| 2026-05-07 22:35 | 42.12763 | 13.02210 | 22594 ft | 463 kts | 62° |
| 2026-05-07 22:35 | 42.14259 | 13.06060 | 22958 ft | 465 kts | 62° |
| 2026-05-07 22:35 | 42.15746 | 13.09949 | 23331 ft | 468 kts | 63° |
| 2026-05-07 22:35 | 42.17238 | 13.13860 | 23645 ft | 471 kts | 62° |
| 2026-05-07 22:36 | 42.18744 | 13.17778 | 23949 ft | 473 kts | 62° |
| 2026-05-07 22:36 | 42.20270 | 13.21728 | 24227 ft | 476 kts | 62° |
| 2026-05-07 22:36 | 42.21805 | 13.25685 | 24502 ft | 478 kts | 62° |
| 2026-05-07 22:36 | 42.23354 | 13.29672 | 24789 ft | 481 kts | 62° |
| 2026-05-07 22:37 | 42.24909 | 13.33676 | 25054 ft | 483 kts | 62° |
| 2026-05-07 22:37 | 42.26476 | 13.37709 | 25240 ft | 487 kts | 62° |
| 2026-05-07 22:37 | 42.28029 | 13.41720 | 25510 ft | 489 kts | 62° |
| 2026-05-07 22:37 | 42.29604 | 13.45800 | 25751 ft | 492 kts | 62° |
| 2026-05-07 22:38 | 42.31191 | 13.49920 | 26015 ft | 494 kts | 62° |
| 2026-05-07 22:38 | 42.32776 | 13.54038 | 26254 ft | 496 kts | 62° |
| 2026-05-07 22:38 | 42.34270 | 13.58262 | 26503 ft | 499 kts | 68° |
| 2026-05-07 22:38 | 42.35365 | 13.62714 | 26759 ft | 501 kts | 75° |
| 2026-05-07 22:39 | 42.36271 | 13.67271 | 26974 ft | 503 kts | 76° |
| 2026-05-07 22:39 | 42.37105 | 13.71862 | 27215 ft | 505 kts | 77° |
| 2026-05-07 22:39 | 42.37903 | 13.76484 | 27449 ft | 506 kts | 78° |
| 2026-05-07 22:39 | 42.38692 | 13.81143 | 27658 ft | 508 kts | 78° |
| 2026-05-07 22:40 | 42.39482 | 13.85816 | 27829 ft | 512 kts | 78° |
| 2026-05-07 22:40 | 42.40282 | 13.90524 | 27989 ft | 514 kts | 78° |
| 2026-05-07 22:40 | 42.41085 | 13.95238 | 28212 ft | 516 kts | 78° |
| 2026-05-07 22:40 | 42.41897 | 13.99987 | 28418 ft | 518 kts | 78° |
| 2026-05-07 22:41 | 42.42710 | 14.04736 | 28631 ft | 520 kts | 78° |
| 2026-05-07 22:41 | 42.43526 | 14.09511 | 28841 ft | 521 kts | 78° |
| 2026-05-07 22:41 | 42.44340 | 14.14293 | 29136 ft | 521 kts | 78° |
| 2026-05-07 22:41 | 42.45152 | 14.19069 | 29423 ft | 521 kts | 78° |
| 2026-05-07 22:42 | 42.45962 | 14.23848 | 29682 ft | 521 kts | 78° |
| 2026-05-07 22:42 | 42.46769 | 14.28625 | 29978 ft | 520 kts | 78° |
| 2026-05-07 22:42 | 42.47573 | 14.33398 | 30215 ft | 520 kts | 78° |
| 2026-05-07 22:42 | 42.48378 | 14.38189 | 30459 ft | 520 kts | 78° |
| 2026-05-07 22:43 | 42.49177 | 14.42962 | 30693 ft | 520 kts | 78° |
| 2026-05-07 22:43 | 42.49975 | 14.47736 | 30920 ft | 519 kts | 78° |
| 2026-05-07 22:43 | 42.50768 | 14.52501 | 31164 ft | 519 kts | 78° |
| 2026-05-07 22:43 | 42.51563 | 14.57286 | 31266 ft | 522 kts | 78° |
| 2026-05-07 22:44 | 42.52359 | 14.62094 | 31489 ft | 521 kts | 78° |
| 2026-05-07 22:44 | 42.53140 | 14.66823 | 31703 ft | 521 kts | 78° |
| 2026-05-07 22:44 | 42.53929 | 14.71610 | 31937 ft | 520 kts | 78° |
| 2026-05-07 22:44 | 42.54715 | 14.76398 | 32151 ft | 520 kts | 78° |
| 2026-05-07 22:45 | 42.55499 | 14.81182 | 32362 ft | 520 kts | 78° |
| 2026-05-07 22:45 | 42.56280 | 14.85965 | 32572 ft | 519 kts | 78° |
| 2026-05-07 22:45 | 42.57057 | 14.90737 | 32759 ft | 519 kts | 78° |
| 2026-05-07 22:45 | 42.57833 | 14.95514 | 33007 ft | 517 kts | 78° |
| 2026-05-07 22:46 | 42.58600 | 15.00248 | 33439 ft | 511 kts | 78° |
| 2026-05-07 22:46 | 42.59360 | 15.04952 | 33663 ft | 510 kts | 78° |
| 2026-05-07 22:46 | 42.60119 | 15.09665 | 33794 ft | 511 kts | 79° |
| 2026-05-07 22:46 | 42.60874 | 15.14370 | 33961 ft | 511 kts | 79° |
| 2026-05-07 22:47 | 42.61633 | 15.19105 | 34029 ft | 514 kts | 79° |
| 2026-05-07 22:47 | 42.63151 | 15.28626 | 34009 ft | 516 kts | 79° |
| 2026-05-07 22:48 | 42.64659 | 15.38136 | 34018 ft | 514 kts | 79° |
| 2026-05-07 22:48 | 42.66157 | 15.47633 | 34018 ft | 514 kts | 79° |
| 2026-05-07 22:49 | 42.67644 | 15.57119 | 34021 ft | 514 kts | 79° |
| 2026-05-07 22:49 | 42.69126 | 15.66629 | 34016 ft | 514 kts | 79° |
| 2026-05-07 22:50 | 42.70596 | 15.76115 | 34257 ft | 512 kts | 79° |
| 2026-05-07 22:50 | 42.71324 | 15.80857 | 34379 ft | 513 kts | 79° |
| 2026-05-07 22:50 | 42.72043 | 15.85609 | 34478 ft | 513 kts | 79° |
| 2026-05-07 22:51 | 42.73479 | 15.95168 | 34582 ft | 518 kts | 79° |
| 2026-05-07 22:51 | 42.74197 | 15.99969 | 34719 ft | 517 kts | 79° |
| 2026-05-07 22:51 | 42.74913 | 16.04759 | 34848 ft | 517 kts | 79° |
| 2026-05-07 22:52 | 42.76343 | 16.14357 | 35031 ft | 519 kts | 79° |
| 2026-05-07 22:52 | 42.77775 | 16.24030 | 35043 ft | 523 kts | 79° |
| 2026-05-07 22:53 | 42.79201 | 16.33714 | 35042 ft | 521 kts | 79° |
| 2026-05-07 22:53 | 42.80617 | 16.43391 | 35045 ft | 522 kts | 79° |
| 2026-05-07 22:54 | 42.82017 | 16.53017 | 35048 ft | 522 kts | 79° |
| 2026-05-07 22:54 | 42.83420 | 16.62727 | 35048 ft | 523 kts | 80° |
| 2026-05-07 22:55 | 42.84818 | 16.72471 | 35047 ft | 524 kts | 79° |
| 2026-05-07 22:55 | 42.86210 | 16.82230 | 35054 ft | 525 kts | 80° |
| 2026-05-07 22:56 | 42.87595 | 16.91996 | 35056 ft | 525 kts | 80° |
| 2026-05-07 22:56 | 42.88970 | 17.01764 | 35061 ft | 525 kts | 80° |
| 2026-05-07 22:57 | 42.90338 | 17.11539 | 35061 ft | 525 kts | 79° |
| 2026-05-07 22:57 | 42.91697 | 17.21317 | 35089 ft | 525 kts | 80° |
| 2026-05-07 22:58 | 42.92823 | 17.29467 | 35067 ft | 526 kts | 80° |
| 2026-05-07 22:58 | 42.94171 | 17.39285 | 35072 ft | 526 kts | 80° |
| 2026-05-07 22:59 | 42.95510 | 17.49099 | 35078 ft | 526 kts | 80° |
| 2026-05-07 22:59 | 42.96841 | 17.58927 | 35079 ft | 526 kts | 80° |
| 2026-05-07 23:00 | 42.98164 | 17.68757 | 35078 ft | 526 kts | 80° |
| 2026-05-07 23:00 | 42.99477 | 17.78578 | 35092 ft | 526 kts | 80° |
| 2026-05-07 23:01 | 43.00786 | 17.88431 | 35117 ft | 528 kts | 80° |
| 2026-05-07 23:01 | 43.02089 | 17.98312 | 35100 ft | 528 kts | 80° |
| 2026-05-07 23:02 | 43.03380 | 18.08179 | 35111 ft | 528 kts | 81° |
| 2026-05-07 23:02 | 43.04664 | 18.18051 | 35126 ft | 528 kts | 81° |
| 2026-05-07 23:03 | 43.05941 | 18.27944 | 35135 ft | 528 kts | 81° |
| 2026-05-07 23:03 | 43.07208 | 18.37831 | 35131 ft | 528 kts | 81° |
| 2026-05-07 23:04 | 43.08466 | 18.47717 | 35136 ft | 528 kts | 81° |
| 2026-05-07 23:04 | 43.09720 | 18.57636 | 35146 ft | 529 kts | 81° |
| 2026-05-07 23:05 | 43.10965 | 18.67560 | 35143 ft | 529 kts | 81° |
| 2026-05-07 23:05 | 43.12195 | 18.77432 | 35142 ft | 529 kts | 81° |
| 2026-05-07 23:06 | 43.13430 | 18.87430 | 35135 ft | 529 kts | 81° |
| 2026-05-07 23:06 | 43.14639 | 18.97303 | 35134 ft | 529 kts | 81° |
| 2026-05-07 23:07 | 43.15849 | 19.07239 | 35129 ft | 528 kts | 81° |
| 2026-05-07 23:07 | 43.17052 | 19.17177 | 35127 ft | 529 kts | 81° |
| 2026-05-07 23:08 | 43.18246 | 19.27124 | 35134 ft | 529 kts | 81° |
| 2026-05-07 23:08 | 43.19233 | 19.37116 | 35129 ft | 529 kts | 85° |
| 2026-05-07 23:09 | 43.19817 | 19.47160 | 35132 ft | 529 kts | 86° |
| 2026-05-07 23:09 | 43.20388 | 19.57227 | 35132 ft | 530 kts | 85° |
| 2026-05-07 23:10 | 43.21019 | 19.67271 | 35129 ft | 529 kts | 85° |
| 2026-05-07 23:10 | 43.21673 | 19.77321 | 35132 ft | 529 kts | 85° |
| 2026-05-07 23:11 | 43.22319 | 19.87373 | 35131 ft | 530 kts | 85° |
| 2026-05-07 23:11 | 43.22955 | 19.97452 | 35133 ft | 529 kts | 85° |
| 2026-05-07 23:12 | 43.23579 | 20.07484 | 35133 ft | 527 kts | 85° |
| 2026-05-07 23:12 | 43.24191 | 20.17437 | 35116 ft | 527 kts | 85° |
| 2026-05-07 23:13 | 43.24795 | 20.27451 | 35130 ft | 526 kts | 85° |
| 2026-05-07 23:13 | 43.25390 | 20.37459 | 35123 ft | 526 kts | 85° |
| 2026-05-07 23:14 | 43.25980 | 20.47453 | 35119 ft | 526 kts | 85° |
| 2026-05-07 23:14 | 43.26557 | 20.57452 | 35098 ft | 526 kts | 85° |
| 2026-05-07 23:15 | 43.27124 | 20.67459 | 35117 ft | 527 kts | 85° |
| 2026-05-07 23:15 | 43.27685 | 20.77487 | 35120 ft | 526 kts | 85° |
| 2026-05-07 23:16 | 43.28237 | 20.87500 | 35110 ft | 526 kts | 85° |
| 2026-05-07 23:16 | 43.28779 | 20.97498 | 35082 ft | 526 kts | 85° |
| 2026-05-07 23:17 | 43.29313 | 21.07506 | 35095 ft | 527 kts | 85° |
| 2026-05-07 23:17 | 43.29840 | 21.17552 | 35093 ft | 527 kts | 85° |
| 2026-05-07 23:18 | 43.30358 | 21.27580 | 35091 ft | 527 kts | 85° |
| 2026-05-07 23:18 | 43.30426 | 21.37624 | 35075 ft | 526 kts | 99° |
| 2026-05-07 23:19 | 43.28698 | 21.47331 | 35089 ft | 523 kts | 108° |
| 2026-05-07 23:19 | 43.26522 | 21.56842 | 35095 ft | 523 kts | 110° |
| 2026-05-07 23:20 | 43.24284 | 21.66287 | 35096 ft | 523 kts | 110° |
| 2026-05-07 23:20 | 43.22054 | 21.75771 | 35099 ft | 523 kts | 110° |
| 2026-05-07 23:21 | 43.19832 | 21.85279 | 35102 ft | 523 kts | 109° |
| 2026-05-07 23:21 | 43.17611 | 21.94771 | 35098 ft | 523 kts | 110° |
| 2026-05-07 23:22 | 43.15382 | 22.04252 | 35085 ft | 523 kts | 110° |
| 2026-05-07 23:22 | 43.13138 | 22.13743 | 35092 ft | 524 kts | 110° |
| 2026-05-07 23:23 | 43.10886 | 22.23242 | 35102 ft | 525 kts | 110° |
| 2026-05-07 23:23 | 43.08626 | 22.32731 | 35112 ft | 524 kts | 110° |
| 2026-05-07 23:24 | 43.06357 | 22.42211 | 35127 ft | 526 kts | 110° |
| 2026-05-07 23:24 | 43.04068 | 22.51734 | 35125 ft | 527 kts | 110° |
| 2026-05-07 23:25 | 43.01769 | 22.61252 | 35129 ft | 527 kts | 110° |
| 2026-05-07 23:25 | 42.99483 | 22.70687 | 35142 ft | 527 kts | 109° |
| 2026-05-07 23:26 | 42.97576 | 22.80368 | 35137 ft | 530 kts | 96° |
| 2026-05-07 23:26 | 42.97274 | 22.90417 | 35126 ft | 530 kts | 89° |
| 2026-05-07 23:27 | 42.97365 | 23.05508 | 35121 ft | 530 kts | 88° |
| 2026-05-07 23:27 | 42.97433 | 23.15586 | 35119 ft | 531 kts | 88° |
| 2026-05-07 23:28 | 42.97462 | 23.25654 | 35114 ft | 530 kts | 89° |
| 2026-05-07 23:28 | 42.97472 | 23.35715 | 35115 ft | 529 kts | 89° |
| 2026-05-07 23:29 | 42.97472 | 23.45767 | 35114 ft | 529 kts | 88° |
| 2026-05-07 23:29 | 42.97466 | 23.55810 | 35092 ft | 529 kts | 89° |
| 2026-05-07 23:30 | 42.97451 | 23.65860 | 35107 ft | 529 kts | 89° |
| 2026-05-07 23:30 | 42.97428 | 23.75903 | 35100 ft | 529 kts | 89° |
| 2026-05-07 23:31 | 42.97397 | 23.85950 | 35091 ft | 529 kts | 89° |
| 2026-05-07 23:31 | 42.97358 | 23.95992 | 35085 ft | 529 kts | 89° |
| 2026-05-07 23:32 | 42.97308 | 24.05975 | 35087 ft | 529 kts | 89° |
| 2026-05-07 23:32 | 42.97250 | 24.16002 | 35083 ft | 526 kts | 89° |
| 2026-05-07 23:33 | 42.97184 | 24.25937 | 35073 ft | 523 kts | 89° |
| 2026-05-07 23:33 | 42.97109 | 24.35862 | 35075 ft | 522 kts | 89° |
| 2026-05-07 23:34 | 42.97030 | 24.45776 | 35076 ft | 523 kts | 89° |
| 2026-05-07 23:34 | 42.96938 | 24.55697 | 35076 ft | 522 kts | 89° |
| 2026-05-07 23:35 | 42.96837 | 24.65606 | 35070 ft | 520 kts | 89° |
| 2026-05-07 23:35 | 42.96729 | 24.75459 | 35066 ft | 519 kts | 89° |
| 2026-05-07 23:36 | 42.96613 | 24.85306 | 35069 ft | 519 kts | 90° |
| 2026-05-07 23:36 | 42.96487 | 24.95158 | 35069 ft | 519 kts | 90° |
| 2026-05-07 23:37 | 42.96356 | 25.04979 | 35065 ft | 514 kts | 90° |
| 2026-05-07 23:37 | 42.96215 | 25.14691 | 35070 ft | 511 kts | 90° |
| 2026-05-07 23:38 | 42.96067 | 25.24391 | 35071 ft | 511 kts | 90° |
| 2026-05-07 23:38 | 42.95912 | 25.34081 | 35066 ft | 511 kts | 90° |
| 2026-05-07 23:39 | 42.95749 | 25.43781 | 35071 ft | 511 kts | 90° |
| 2026-05-07 23:39 | 42.95576 | 25.53469 | 35075 ft | 511 kts | 90° |
| 2026-05-07 23:40 | 42.95395 | 25.63175 | 35073 ft | 511 kts | 90° |
| 2026-05-07 23:40 | 42.95208 | 25.72797 | 35071 ft | 511 kts | 91° |
| 2026-05-07 23:41 | 42.95012 | 25.82492 | 35073 ft | 511 kts | 90° |
| 2026-05-07 23:41 | 42.94808 | 25.92168 | 35075 ft | 509 kts | 91° |
| 2026-05-07 23:42 | 42.94595 | 26.01818 | 35073 ft | 508 kts | 91° |
| 2026-05-07 23:42 | 42.94376 | 26.11448 | 35079 ft | 508 kts | 91° |
| 2026-05-07 23:43 | 42.94149 | 26.21078 | 35074 ft | 505 kts | 91° |
| 2026-05-07 23:43 | 42.93915 | 26.30623 | 35086 ft | 503 kts | 91° |
| 2026-05-07 23:44 | 42.93673 | 26.40173 | 35082 ft | 503 kts | 91° |
| 2026-05-07 23:44 | 42.93424 | 26.49723 | 35086 ft | 503 kts | 91° |
| 2026-05-07 23:45 | 42.93167 | 26.59258 | 35084 ft | 501 kts | 92° |
| 2026-05-07 23:45 | 42.92903 | 26.68719 | 35087 ft | 498 kts | 92° |
| 2026-05-07 23:46 | 42.92634 | 26.78154 | 35098 ft | 498 kts | 92° |
| 2026-05-07 23:46 | 42.92358 | 26.87559 | 35096 ft | 494 kts | 92° |
| 2026-05-07 23:47 | 42.92075 | 26.96911 | 35092 ft | 493 kts | 93° |
| 2026-05-07 23:47 | 42.91834 | 27.04674 | 35099 ft | 493 kts | 93° |
| 2026-05-07 23:48 | 42.91536 | 27.14021 | 35101 ft | 493 kts | 93° |
| 2026-05-07 23:48 | 42.91182 | 27.24879 | 35098 ft | 493 kts | 93° |
| 2026-05-07 23:49 | 42.90869 | 27.34226 | 35098 ft | 494 kts | 93° |
| 2026-05-07 23:49 | 42.90600 | 27.42060 | 35099 ft | 494 kts | 93° |
| 2026-05-07 23:50 | 42.90271 | 27.51427 | 35092 ft | 494 kts | 93° |
| 2026-05-07 23:50 | 42.89936 | 27.60786 | 35091 ft | 494 kts | 93° |
| 2026-05-07 23:51 | 42.89593 | 27.70149 | 35094 ft | 495 kts | 93° |
| 2026-05-07 23:51 | 42.89242 | 27.79523 | 35096 ft | 495 kts | 93° |
| 2026-05-07 23:52 | 42.88884 | 27.88890 | 35101 ft | 495 kts | 93° |
| 2026-05-07 23:52 | 42.88517 | 27.98260 | 35102 ft | 495 kts | 93° |
| 2026-05-07 23:53 | 42.88134 | 28.07644 | 35099 ft | 495 kts | 94° |
| 2026-05-07 23:53 | 42.87703 | 28.16948 | 35105 ft | 495 kts | 94° |
| 2026-05-07 23:54 | 42.87255 | 28.26323 | 35100 ft | 496 kts | 94° |
| 2026-05-07 23:54 | 42.86806 | 28.35698 | 35102 ft | 496 kts | 94° |
| 2026-05-07 23:55 | 42.86354 | 28.45061 | 35101 ft | 496 kts | 94° |
| 2026-05-07 23:55 | 42.85894 | 28.54438 | 35103 ft | 495 kts | 93° |
| 2026-05-07 23:56 | 42.85427 | 28.63808 | 35105 ft | 495 kts | 93° |
| 2026-05-07 23:56 | 42.84953 | 28.73175 | 35103 ft | 495 kts | 93° |
| 2026-05-07 23:57 | 42.84471 | 28.82526 | 35103 ft | 495 kts | 93° |
| 2026-05-07 23:57 | 42.83980 | 28.91901 | 35104 ft | 495 kts | 93° |
| 2026-05-07 23:58 | 42.83482 | 29.01255 | 35109 ft | 495 kts | 93° |
| 2026-05-07 23:58 | 42.82978 | 29.10604 | 35106 ft | 495 kts | 93° |
| 2026-05-07 23:59 | 42.82464 | 29.19969 | 35111 ft | 495 kts | 93° |
| 2026-05-07 23:59 | 42.81944 | 29.29324 | 35111 ft | 495 kts | 93° |
| 2026-05-08 00:00 | 42.81416 | 29.38682 | 35113 ft | 496 kts | 93° |
| 2026-05-08 00:00 | 42.80880 | 29.48040 | 35116 ft | 496 kts | 93° |
| 2026-05-08 00:01 | 42.80340 | 29.57325 | 35111 ft | 495 kts | 93° |
| 2026-05-08 00:01 | 42.79789 | 29.66678 | 35112 ft | 495 kts | 93° |
| 2026-05-08 00:02 | 42.79231 | 29.76014 | 35118 ft | 495 kts | 93° |
| 2026-05-08 00:02 | 42.78665 | 29.85353 | 35117 ft | 495 kts | 93° |
| 2026-05-08 00:03 | 42.78093 | 29.94684 | 35117 ft | 495 kts | 93° |
| 2026-05-08 00:03 | 42.77511 | 30.04020 | 35119 ft | 496 kts | 93° |
| 2026-05-08 00:04 | 42.76922 | 30.13377 | 35119 ft | 497 kts | 93° |
| 2026-05-08 00:04 | 42.76323 | 30.22756 | 35122 ft | 497 kts | 93° |
| 2026-05-08 00:05 | 42.75717 | 30.32114 | 35121 ft | 497 kts | 93° |
| 2026-05-08 00:05 | 42.75103 | 30.41480 | 35122 ft | 497 kts | 92° |
| 2026-05-08 00:06 | 42.74481 | 30.50855 | 35124 ft | 498 kts | 92° |
| 2026-05-08 00:06 | 42.73851 | 30.60233 | 35127 ft | 498 kts | 93° |
| 2026-05-08 00:07 | 42.73020 | 30.69602 | 35127 ft | 499 kts | 96° |
| 2026-05-08 00:07 | 42.72000 | 30.78934 | 35128 ft | 499 kts | 96° |
| 2026-05-08 00:08 | 42.71001 | 30.88208 | 35127 ft | 500 kts | 95° |
| 2026-05-08 00:08 | 42.70023 | 30.97566 | 35129 ft | 500 kts | 95° |
| 2026-05-08 00:09 | 42.69053 | 31.06922 | 35127 ft | 500 kts | 95° |
| 2026-05-08 00:09 | 42.68076 | 31.16272 | 35127 ft | 499 kts | 95° |
| 2026-05-08 00:10 | 42.67091 | 31.25606 | 35129 ft | 499 kts | 95° |
| 2026-05-08 00:10 | 42.66098 | 31.34932 | 35130 ft | 499 kts | 95° |
| 2026-05-08 00:11 | 42.65097 | 31.44261 | 35130 ft | 498 kts | 95° |
| 2026-05-08 00:11 | 42.64090 | 31.53565 | 35129 ft | 497 kts | 95° |
| 2026-05-08 00:12 | 42.63078 | 31.62853 | 35128 ft | 497 kts | 95° |
| 2026-05-08 00:12 | 42.62060 | 31.72130 | 35125 ft | 497 kts | 95° |
| 2026-05-08 00:13 | 42.61031 | 31.81422 | 35132 ft | 497 kts | 95° |
| 2026-05-08 00:13 | 42.59998 | 31.90691 | 35129 ft | 496 kts | 95° |
| 2026-05-08 00:14 | 42.58957 | 31.99956 | 35130 ft | 496 kts | 95° |
| 2026-05-08 00:14 | 42.57923 | 32.09219 | 35130 ft | 496 kts | 95° |
| 2026-05-08 00:15 | 42.56875 | 32.18468 | 35127 ft | 496 kts | 95° |
| 2026-05-08 00:15 | 42.55815 | 32.27658 | 35127 ft | 496 kts | 95° |
| 2026-05-08 00:16 | 42.54743 | 32.36899 | 35127 ft | 496 kts | 95° |
| 2026-05-08 00:16 | 42.53665 | 32.46143 | 35128 ft | 496 kts | 95° |
| 2026-05-08 00:17 | 42.52583 | 32.55356 | 35133 ft | 495 kts | 95° |
| 2026-05-08 00:17 | 42.51492 | 32.64576 | 35124 ft | 494 kts | 95° |
| 2026-05-08 00:18 | 42.50397 | 32.73773 | 35122 ft | 494 kts | 95° |
| 2026-05-08 00:18 | 42.49294 | 32.82973 | 35123 ft | 494 kts | 96° |
| 2026-05-08 00:19 | 42.48185 | 32.92160 | 35118 ft | 494 kts | 96° |
| 2026-05-08 00:19 | 42.47067 | 33.01346 | 35133 ft | 494 kts | 96° |
| 2026-05-08 00:20 | 42.45941 | 33.10544 | 35117 ft | 495 kts | 96° |
| 2026-05-08 00:20 | 42.44814 | 33.19718 | 35118 ft | 495 kts | 96° |
| 2026-05-08 00:21 | 42.43669 | 33.28914 | 35134 ft | 495 kts | 96° |
| 2026-05-08 00:21 | 42.42517 | 33.38088 | 35128 ft | 494 kts | 96° |
| 2026-05-08 00:22 | 42.41361 | 33.47264 | 35135 ft | 494 kts | 96° |
| 2026-05-08 00:22 | 42.40200 | 33.56421 | 35132 ft | 494 kts | 96° |
| 2026-05-08 00:23 | 42.39033 | 33.65570 | 35133 ft | 494 kts | 96° |
| 2026-05-08 00:23 | 42.37866 | 33.74658 | 35128 ft | 494 kts | 96° |
| 2026-05-08 00:24 | 42.36684 | 33.83804 | 35130 ft | 494 kts | 96° |
| 2026-05-08 00:24 | 42.35497 | 33.92954 | 35119 ft | 494 kts | 96° |
| 2026-05-08 00:25 | 42.34304 | 34.02108 | 35133 ft | 494 kts | 96° |
| 2026-05-08 00:25 | 42.33104 | 34.11233 | 35127 ft | 494 kts | 96° |
| 2026-05-08 00:26 | 42.31896 | 34.20367 | 35127 ft | 494 kts | 96° |
| 2026-05-08 00:26 | 42.30681 | 34.29501 | 35126 ft | 494 kts | 96° |
| 2026-05-08 00:27 | 42.29458 | 34.38636 | 35129 ft | 494 kts | 97° |
| 2026-05-08 00:27 | 42.28235 | 34.47745 | 35144 ft | 493 kts | 97° |
| 2026-05-08 00:28 | 42.27000 | 34.56816 | 35135 ft | 490 kts | 97° |
| 2026-05-08 00:28 | 42.25763 | 34.65860 | 35135 ft | 490 kts | 97° |
| 2026-05-08 00:29 | 42.24521 | 34.74905 | 35135 ft | 490 kts | 97° |
| 2026-05-08 00:29 | 42.23273 | 34.83941 | 35132 ft | 489 kts | 97° |
| 2026-05-08 00:30 | 42.22024 | 34.92903 | 35155 ft | 489 kts | 97° |
| 2026-05-08 00:30 | 42.20757 | 35.01921 | 35138 ft | 490 kts | 97° |
| 2026-05-08 00:31 | 42.19483 | 35.10939 | 35146 ft | 488 kts | 98° |
| 2026-05-08 00:31 | 42.18208 | 35.19916 | 35144 ft | 487 kts | 98° |
| 2026-05-08 00:32 | 42.16927 | 35.28887 | 35149 ft | 487 kts | 98° |
| 2026-05-08 00:32 | 42.15640 | 35.37851 | 35154 ft | 487 kts | 98° |
| 2026-05-08 00:33 | 42.14350 | 35.46817 | 35165 ft | 486 kts | 98° |
| 2026-05-08 00:33 | 42.13055 | 35.55740 | 35155 ft | 484 kts | 98° |
| 2026-05-08 00:34 | 42.11760 | 35.64620 | 35155 ft | 483 kts | 98° |
| 2026-05-08 00:34 | 42.10459 | 35.73492 | 35160 ft | 483 kts | 98° |
| 2026-05-08 00:35 | 42.09152 | 35.82364 | 35163 ft | 483 kts | 98° |
| 2026-05-08 00:35 | 42.07847 | 35.91165 | 35156 ft | 483 kts | 99° |
| 2026-05-08 00:36 | 42.06527 | 36.00023 | 35161 ft | 483 kts | 99° |
| 2026-05-08 00:36 | 42.05200 | 36.08873 | 35164 ft | 483 kts | 99° |
| 2026-05-08 00:37 | 42.03866 | 36.17724 | 35168 ft | 483 kts | 99° |
| 2026-05-08 00:38 | 42.01851 | 36.31001 | 35167 ft | 483 kts | 99° |
| 2026-05-08 00:38 | 42.00500 | 36.39845 | 35170 ft | 483 kts | 99° |
| 2026-05-08 00:39 | 41.99142 | 36.48684 | 35181 ft | 483 kts | 99° |
| 2026-05-08 00:39 | 41.98010 | 36.56015 | 35175 ft | 481 kts | 99° |
| 2026-05-08 00:40 | 41.96645 | 36.64808 | 35176 ft | 481 kts | 99° |
| 2026-05-08 00:40 | 41.95273 | 36.73603 | 35176 ft | 481 kts | 99° |
| 2026-05-08 00:41 | 41.93896 | 36.82387 | 35179 ft | 481 kts | 99° |
| 2026-05-08 00:41 | 41.92512 | 36.91170 | 35176 ft | 481 kts | 99° |
| 2026-05-08 00:42 | 41.91123 | 36.99934 | 35178 ft | 481 kts | 99° |
| 2026-05-08 00:42 | 41.90360 | 37.08805 | 35184 ft | 477 kts | 90° |
| 2026-05-08 00:43 | 41.90168 | 37.17698 | 35194 ft | 477 kts | 89° |
| 2026-05-08 00:43 | 41.90058 | 37.26604 | 35184 ft | 477 kts | 88° |
| 2026-05-08 00:44 | 41.89939 | 37.35505 | 35185 ft | 476 kts | 89° |
| 2026-05-08 00:44 | 41.89798 | 37.44380 | 35184 ft | 476 kts | 89° |
| 2026-05-08 00:45 | 41.89645 | 37.53262 | 35183 ft | 475 kts | 89° |
| 2026-05-08 00:45 | 41.89486 | 37.62071 | 35188 ft | 476 kts | 89° |
| 2026-05-08 00:46 | 41.89318 | 37.70999 | 35187 ft | 475 kts | 89° |
| 2026-05-08 00:46 | 41.89146 | 37.79814 | 35190 ft | 475 kts | 89° |
| 2026-05-08 00:47 | 41.88967 | 37.88680 | 35197 ft | 475 kts | 89° |
| 2026-05-08 00:47 | 41.88780 | 37.97533 | 35189 ft | 473 kts | 89° |
| 2026-05-08 00:48 | 41.88588 | 38.06362 | 35188 ft | 473 kts | 89° |
| 2026-05-08 00:48 | 41.88389 | 38.15190 | 35192 ft | 474 kts | 89° |
| 2026-05-08 00:49 | 41.88183 | 38.24033 | 35194 ft | 474 kts | 89° |
| 2026-05-08 00:49 | 41.87970 | 38.32867 | 35187 ft | 474 kts | 89° |
| 2026-05-08 00:50 | 41.87750 | 38.41705 | 35188 ft | 474 kts | 89° |
| 2026-05-08 00:50 | 41.87524 | 38.50551 | 35197 ft | 475 kts | 89° |
| 2026-05-08 00:51 | 41.87291 | 38.59359 | 35189 ft | 476 kts | 90° |
| 2026-05-08 00:51 | 41.87050 | 38.68234 | 35194 ft | 476 kts | 90° |
| 2026-05-08 00:52 | 41.86802 | 38.77111 | 35186 ft | 476 kts | 90° |
| 2026-05-08 00:52 | 41.86547 | 38.85985 | 35207 ft | 476 kts | 90° |
| 2026-05-08 00:53 | 41.86286 | 38.94863 | 35195 ft | 477 kts | 90° |
| 2026-05-08 00:53 | 41.86017 | 39.03744 | 35197 ft | 477 kts | 90° |
| 2026-05-08 00:54 | 41.85742 | 39.12621 | 35195 ft | 475 kts | 90° |
| 2026-05-08 00:54 | 41.85460 | 39.21469 | 35195 ft | 475 kts | 90° |
| 2026-05-08 00:55 | 41.85172 | 39.30310 | 35203 ft | 475 kts | 90° |
| 2026-05-08 00:55 | 41.84877 | 39.39173 | 35198 ft | 476 kts | 90° |
| 2026-05-08 00:56 | 41.84575 | 39.48046 | 35197 ft | 476 kts | 90° |
| 2026-05-08 00:56 | 41.84270 | 39.56915 | 35197 ft | 476 kts | 90° |
| 2026-05-08 00:57 | 41.83955 | 39.65778 | 35206 ft | 476 kts | 91° |
| 2026-05-08 00:57 | 41.83630 | 39.74634 | 35201 ft | 476 kts | 91° |
| 2026-05-08 00:58 | 41.83300 | 39.83502 | 35200 ft | 477 kts | 91° |
| 2026-05-08 00:58 | 41.82963 | 39.92391 | 35200 ft | 477 kts | 91° |
| 2026-05-08 00:59 | 41.82623 | 40.01207 | 35200 ft | 477 kts | 91° |
| 2026-05-08 00:59 | 41.82273 | 40.10089 | 35200 ft | 477 kts | 91° |
| 2026-05-08 01:00 | 41.81921 | 40.18980 | 35201 ft | 479 kts | 91° |
| 2026-05-08 01:00 | 41.81553 | 40.27910 | 35195 ft | 479 kts | 91° |
| 2026-05-08 01:01 | 41.81177 | 40.36813 | 35199 ft | 479 kts | 91° |
| 2026-05-08 01:01 | 41.80796 | 40.45722 | 35197 ft | 479 kts | 92° |
| 2026-05-08 01:02 | 41.80409 | 40.54635 | 35197 ft | 479 kts | 92° |
| 2026-05-08 01:02 | 41.80067 | 40.63532 | 35194 ft | 478 kts | 88° |
| 2026-05-08 01:03 | 41.80747 | 40.72361 | 35195 ft | 476 kts | 80° |
| 2026-05-08 01:03 | 41.81794 | 40.81113 | 35196 ft | 475 kts | 79° |
| 2026-05-08 01:04 | 41.82883 | 40.89769 | 35195 ft | 474 kts | 79° |
| 2026-05-08 01:04 | 41.83963 | 40.98491 | 35195 ft | 474 kts | 79° |
| 2026-05-08 01:05 | 41.85023 | 41.07218 | 35192 ft | 474 kts | 79° |
| 2026-05-08 01:05 | 41.86076 | 41.15981 | 35192 ft | 477 kts | 79° |
| 2026-05-08 01:06 | 41.87122 | 41.24764 | 35192 ft | 477 kts | 79° |
| 2026-05-08 01:06 | 41.88164 | 41.33549 | 35186 ft | 477 kts | 80° |
| 2026-05-08 01:07 | 41.89198 | 41.42331 | 35183 ft | 477 kts | 80° |
| 2026-05-08 01:07 | 41.90226 | 41.51120 | 35186 ft | 477 kts | 80° |
| 2026-05-08 01:08 | 41.91248 | 41.59915 | 35185 ft | 477 kts | 80° |
| 2026-05-08 01:08 | 41.92262 | 41.68704 | 35185 ft | 477 kts | 80° |
| 2026-05-08 01:09 | 41.93273 | 41.77525 | 35181 ft | 479 kts | 80° |
| 2026-05-08 01:09 | 41.94279 | 41.86367 | 35181 ft | 479 kts | 80° |
| 2026-05-08 01:10 | 41.95278 | 41.95203 | 35182 ft | 479 kts | 80° |
| 2026-05-08 01:10 | 41.96270 | 42.04045 | 35185 ft | 478 kts | 81° |
| 2026-05-08 01:11 | 41.97255 | 42.12888 | 35184 ft | 478 kts | 81° |
| 2026-05-08 01:11 | 41.98225 | 42.21657 | 35189 ft | 478 kts | 81° |
| 2026-05-08 01:12 | 41.99198 | 42.30519 | 35184 ft | 480 kts | 81° |
| 2026-05-08 01:12 | 42.00166 | 42.39401 | 35184 ft | 480 kts | 81° |
| 2026-05-08 01:13 | 42.01127 | 42.48286 | 35185 ft | 480 kts | 81° |
| 2026-05-08 01:13 | 42.02081 | 42.57176 | 35184 ft | 480 kts | 81° |
| 2026-05-08 01:14 | 42.03029 | 42.66062 | 35187 ft | 480 kts | 81° |
| 2026-05-08 01:14 | 42.03970 | 42.74954 | 35188 ft | 480 kts | 81° |
| 2026-05-08 01:15 | 42.04905 | 42.83856 | 35194 ft | 482 kts | 82° |
| 2026-05-08 01:15 | 42.05757 | 42.92807 | 35200 ft | 483 kts | 87° |
| 2026-05-08 01:16 | 42.05112 | 43.01770 | 35200 ft | 483 kts | 105° |
| 2026-05-08 01:16 | 42.02502 | 43.10082 | 35212 ft | 484 kts | 117° |
| 2026-05-08 01:17 | 41.99356 | 43.18089 | 35214 ft | 484 kts | 118° |
| 2026-05-08 01:17 | 41.96148 | 43.26054 | 35216 ft | 485 kts | 118° |
| 2026-05-08 01:18 | 41.92961 | 43.34037 | 35220 ft | 485 kts | 118° |
| 2026-05-08 01:18 | 41.89816 | 43.41974 | 35219 ft | 485 kts | 118° |
| 2026-05-08 01:19 | 41.86649 | 43.49960 | 35217 ft | 485 kts | 118° |
| 2026-05-08 01:19 | 41.83470 | 43.57953 | 35220 ft | 485 kts | 118° |
| 2026-05-08 01:20 | 41.80286 | 43.65932 | 35219 ft | 485 kts | 119° |
| 2026-05-08 01:20 | 41.77096 | 43.73902 | 35208 ft | 486 kts | 119° |
| 2026-05-08 01:21 | 41.73894 | 43.81880 | 35211 ft | 486 kts | 119° |
| 2026-05-08 01:21 | 41.70687 | 43.89848 | 35211 ft | 487 kts | 119° |
| 2026-05-08 01:22 | 41.67470 | 43.97817 | 35207 ft | 487 kts | 120° |
| 2026-05-08 01:22 | 41.64247 | 44.05783 | 35212 ft | 487 kts | 120° |
| 2026-05-08 01:23 | 41.61014 | 44.13749 | 35211 ft | 488 kts | 120° |
| 2026-05-08 01:23 | 41.57974 | 44.21842 | 35209 ft | 489 kts | 111° |
| 2026-05-08 01:24 | 41.56430 | 44.30711 | 35211 ft | 493 kts | 101° |
| 2026-05-08 01:24 | 41.55497 | 44.39746 | 35211 ft | 495 kts | 99° |
| 2026-05-08 01:25 | 41.54640 | 44.48920 | 35198 ft | 495 kts | 99° |
| 2026-05-08 01:25 | 41.53764 | 44.57996 | 35195 ft | 495 kts | 99° |
| 2026-05-08 01:26 | 41.52854 | 44.67105 | 35193 ft | 495 kts | 99° |
| 2026-05-08 01:26 | 41.51927 | 44.76213 | 35187 ft | 495 kts | 99° |
| 2026-05-08 01:27 | 41.50995 | 44.85306 | 35187 ft | 495 kts | 99° |
| 2026-05-08 01:27 | 41.50057 | 44.94398 | 35178 ft | 495 kts | 100° |
| 2026-05-08 01:28 | 41.49113 | 45.03494 | 35177 ft | 495 kts | 100° |
| 2026-05-08 01:28 | 41.48157 | 45.12615 | 35182 ft | 497 kts | 101° |
| 2026-05-08 01:29 | 41.47161 | 45.21747 | 35174 ft | 497 kts | 104° |
| 2026-05-08 01:29 | 41.44866 | 45.30312 | 35395 ft | 487 kts | 123° |
| 2026-05-08 01:29 | 41.42973 | 45.34019 | 35559 ft | 481 kts | 133° |
| 2026-05-08 01:30 | 41.40803 | 45.37409 | 35686 ft | 480 kts | 136° |
| 2026-05-08 01:30 | 41.39321 | 45.39588 | 35805 ft | 479 kts | 136° |
| 2026-05-08 01:30 | 41.36305 | 45.43872 | 35998 ft | 479 kts | 137° |
| 2026-05-08 01:30 | 41.34011 | 45.47083 | 36128 ft | 479 kts | 137° |
| 2026-05-08 01:31 | 41.31717 | 45.50296 | 36250 ft | 479 kts | 137° |
| 2026-05-08 01:31 | 41.29427 | 45.53519 | 36380 ft | 479 kts | 137° |
| 2026-05-08 01:31 | 41.27141 | 45.56749 | 36487 ft | 480 kts | 137° |
| 2026-05-08 01:31 | 41.24865 | 45.59976 | 36633 ft | 480 kts | 137° |
| 2026-05-08 01:32 | 41.23403 | 45.62194 | 36692 ft | 482 kts | 132° |
| 2026-05-08 01:32 | 41.21479 | 45.65864 | 36815 ft | 487 kts | 124° |
| 2026-05-08 01:32 | 41.19985 | 45.69930 | 36930 ft | 492 kts | 116° |
| 2026-05-08 01:32 | 41.18740 | 45.74175 | 37049 ft | 494 kts | 114° |
| 2026-05-08 01:33 | 41.17583 | 45.78466 | 37154 ft | 495 kts | 112° |
| 2026-05-08 01:33 | 41.15342 | 45.87147 | 37167 ft | 498 kts | 113° |
| 2026-05-08 01:34 | 41.13093 | 45.95818 | 37171 ft | 497 kts | 113° |
| 2026-05-08 01:34 | 41.10808 | 46.04463 | 37167 ft | 496 kts | 113° |
| 2026-05-08 01:35 | 41.08503 | 46.13093 | 37147 ft | 496 kts | 114° |
| 2026-05-08 01:35 | 41.06192 | 46.21709 | 37173 ft | 497 kts | 114° |
| 2026-05-08 01:36 | 41.03875 | 46.30326 | 37173 ft | 497 kts | 114° |
| 2026-05-08 01:36 | 41.01570 | 46.38953 | 37173 ft | 497 kts | 114° |
| 2026-05-08 01:37 | 40.99264 | 46.47578 | 37169 ft | 497 kts | 115° |
| 2026-05-08 01:37 | 40.96951 | 46.56193 | 37174 ft | 497 kts | 115° |
| 2026-05-08 01:38 | 40.94644 | 46.64753 | 37168 ft | 497 kts | 115° |
| 2026-05-08 01:38 | 40.92318 | 46.73353 | 37167 ft | 497 kts | 115° |
| 2026-05-08 01:39 | 40.90837 | 46.82368 | 37178 ft | 510 kts | 96° |
| 2026-05-08 01:39 | 40.90978 | 46.87076 | 37168 ft | 517 kts | 85° |
| 2026-05-08 01:39 | 40.91635 | 46.91759 | 37163 ft | 520 kts | 81° |
| 2026-05-08 01:40 | 40.93323 | 47.01076 | 37167 ft | 522 kts | 78° |
| 2026-05-08 01:40 | 40.95123 | 47.10402 | 37155 ft | 523 kts | 79° |
| 2026-05-08 01:41 | 40.96880 | 47.19734 | 37169 ft | 523 kts | 79° |
| 2026-05-08 01:41 | 40.98596 | 47.29088 | 37165 ft | 523 kts | 79° |
| 2026-05-08 01:42 | 41.00294 | 47.38442 | 37173 ft | 523 kts | 79° |
| 2026-05-08 01:42 | 41.01986 | 47.47810 | 37171 ft | 523 kts | 80° |
| 2026-05-08 01:43 | 41.03671 | 47.57179 | 37164 ft | 523 kts | 80° |
| 2026-05-08 01:43 | 41.05351 | 47.66554 | 37157 ft | 523 kts | 80° |
| 2026-05-08 01:44 | 41.07025 | 47.75946 | 37162 ft | 523 kts | 80° |
| 2026-05-08 01:44 | 41.08688 | 47.85324 | 37164 ft | 523 kts | 80° |
| 2026-05-08 01:45 | 41.10343 | 47.94704 | 37173 ft | 524 kts | 80° |
| 2026-05-08 01:45 | 41.12567 | 48.03945 | 37159 ft | 526 kts | 73° |
| 2026-05-08 01:46 | 41.15077 | 48.12988 | 37177 ft | 527 kts | 72° |
| 2026-05-08 01:46 | 41.17631 | 48.22102 | 37170 ft | 527 kts | 72° |
| 2026-05-08 01:47 | 41.20165 | 48.31226 | 37170 ft | 526 kts | 72° |
| 2026-05-08 01:47 | 41.22680 | 48.40367 | 37151 ft | 527 kts | 72° |
| 2026-05-08 01:48 | 41.26450 | 48.54142 | 37156 ft | 529 kts | 73° |
| 2026-05-08 01:48 | 41.28959 | 48.63323 | 37158 ft | 529 kts | 72° |
| 2026-05-08 01:49 | 41.31463 | 48.72534 | 37148 ft | 529 kts | 73° |
| 2026-05-08 01:49 | 41.33955 | 48.81732 | 37135 ft | 529 kts | 73° |
| 2026-05-08 01:50 | 41.36447 | 48.90961 | 37121 ft | 529 kts | 73° |
| 2026-05-08 01:50 | 41.38916 | 49.00130 | 37128 ft | 530 kts | 73° |
| 2026-05-08 01:51 | 41.41387 | 49.09365 | 37126 ft | 530 kts | 73° |
| 2026-05-08 01:51 | 41.43857 | 49.18629 | 37122 ft | 530 kts | 73° |
| 2026-05-08 01:52 | 41.46316 | 49.27883 | 37119 ft | 530 kts | 73° |
| 2026-05-08 01:52 | 41.48771 | 49.37153 | 37118 ft | 530 kts | 73° |
| 2026-05-08 01:53 | 41.51217 | 49.46422 | 37122 ft | 530 kts | 73° |
| 2026-05-08 01:53 | 41.53654 | 49.55696 | 37120 ft | 530 kts | 73° |
| 2026-05-08 01:54 | 41.56084 | 49.64978 | 37122 ft | 530 kts | 73° |
| 2026-05-08 01:54 | 41.58509 | 49.74275 | 37121 ft | 530 kts | 73° |
| 2026-05-08 01:55 | 41.60921 | 49.83560 | 37111 ft | 530 kts | 73° |
| 2026-05-08 01:55 | 41.63332 | 49.92876 | 37118 ft | 530 kts | 73° |
| 2026-05-08 01:56 | 41.65736 | 50.02197 | 37122 ft | 530 kts | 73° |
| 2026-05-08 01:56 | 41.68134 | 50.11536 | 37122 ft | 530 kts | 73° |
| 2026-05-08 01:57 | 41.70522 | 50.20869 | 37118 ft | 530 kts | 73° |
| 2026-05-08 01:57 | 41.72901 | 50.30207 | 37115 ft | 530 kts | 73° |
| 2026-05-08 01:58 | 41.75276 | 50.39562 | 37114 ft | 530 kts | 73° |
| 2026-05-08 01:58 | 41.77639 | 50.48912 | 37114 ft | 531 kts | 73° |
| 2026-05-08 01:59 | 41.79985 | 50.58226 | 37114 ft | 531 kts | 74° |
| 2026-05-08 01:59 | 41.82337 | 50.67602 | 37116 ft | 531 kts | 74° |
| 2026-05-08 02:00 | 41.84683 | 50.76995 | 37113 ft | 530 kts | 74° |
| 2026-05-08 02:00 | 41.87021 | 50.86391 | 37118 ft | 531 kts | 74° |
| 2026-05-08 02:01 | 41.89353 | 50.95796 | 37112 ft | 531 kts | 74° |
| 2026-05-08 02:01 | 41.91675 | 51.05201 | 37114 ft | 531 kts | 74° |
| 2026-05-08 02:02 | 41.93990 | 51.14617 | 37108 ft | 531 kts | 74° |
| 2026-05-08 02:02 | 41.96300 | 51.24055 | 37115 ft | 531 kts | 74° |
| 2026-05-08 02:03 | 41.98602 | 51.33491 | 37113 ft | 531 kts | 74° |
| 2026-05-08 02:03 | 42.00921 | 51.42928 | 37107 ft | 532 kts | 71° |
| 2026-05-08 02:04 | 42.04388 | 51.51742 | 37109 ft | 534 kts | 59° |
| 2026-05-08 02:04 | 42.08400 | 51.60167 | 37110 ft | 535 kts | 57° |
| 2026-05-08 02:05 | 42.12464 | 51.68475 | 37108 ft | 535 kts | 57° |
| 2026-05-08 02:05 | 42.16550 | 51.76879 | 37106 ft | 535 kts | 57° |
| 2026-05-08 02:06 | 42.20605 | 51.85294 | 37102 ft | 535 kts | 57° |
| 2026-05-08 02:06 | 42.24650 | 51.93732 | 37100 ft | 535 kts | 57° |
| 2026-05-08 02:07 | 42.28685 | 52.02173 | 37104 ft | 535 kts | 58° |
| 2026-05-08 02:07 | 42.32715 | 52.10624 | 37109 ft | 535 kts | 58° |
| 2026-05-08 02:08 | 42.36733 | 52.19075 | 37101 ft | 535 kts | 58° |
| 2026-05-08 02:08 | 42.40746 | 52.27537 | 37104 ft | 535 kts | 58° |
| 2026-05-08 02:09 | 42.44758 | 52.36022 | 37103 ft | 535 kts | 58° |
| 2026-05-08 02:09 | 42.48756 | 52.44500 | 37100 ft | 535 kts | 58° |
| 2026-05-08 02:10 | 42.52763 | 52.53022 | 37104 ft | 535 kts | 58° |
| 2026-05-08 02:10 | 42.56754 | 52.61532 | 37104 ft | 535 kts | 58° |
| 2026-05-08 02:11 | 42.60716 | 52.70007 | 37100 ft | 535 kts | 58° |
| 2026-05-08 02:11 | 42.64696 | 52.78544 | 37100 ft | 535 kts | 58° |
| 2026-05-08 02:12 | 42.68672 | 52.87097 | 37101 ft | 535 kts | 58° |
| 2026-05-08 02:12 | 42.72646 | 52.95671 | 37098 ft | 536 kts | 58° |
| 2026-05-08 02:13 | 42.76613 | 53.04254 | 37095 ft | 536 kts | 58° |
| 2026-05-08 02:13 | 42.80574 | 53.12847 | 37097 ft | 536 kts | 58° |
| 2026-05-08 02:14 | 42.84531 | 53.21458 | 37094 ft | 536 kts | 58° |
| 2026-05-08 02:14 | 42.88483 | 53.30085 | 37095 ft | 536 kts | 58° |
| 2026-05-08 02:15 | 42.92429 | 53.38721 | 37095 ft | 536 kts | 58° |
| 2026-05-08 02:15 | 42.96365 | 53.47362 | 37092 ft | 537 kts | 58° |
| 2026-05-08 02:16 | 43.00101 | 53.56174 | 37088 ft | 536 kts | 68° |
| 2026-05-08 02:16 | 43.01310 | 53.60966 | 37088 ft | 531 kts | 79° |
| 2026-05-08 02:16 | 43.01944 | 53.65917 | 37091 ft | 528 kts | 85° |
| 2026-05-08 02:17 | 43.02739 | 53.75900 | 37091 ft | 528 kts | 88° |
| 2026-05-08 02:17 | 43.03359 | 53.85894 | 37085 ft | 528 kts | 89° |
| 2026-05-08 02:18 | 43.03983 | 53.95894 | 37087 ft | 528 kts | 88° |
| 2026-05-08 02:18 | 43.04624 | 54.05810 | 37072 ft | 527 kts | 88° |
| 2026-05-08 02:19 | 43.05274 | 54.15799 | 37088 ft | 527 kts | 88° |
| 2026-05-08 02:19 | 43.05916 | 54.25789 | 37089 ft | 528 kts | 88° |
| 2026-05-08 02:20 | 43.06549 | 54.35794 | 37087 ft | 528 kts | 88° |
| 2026-05-08 02:20 | 43.07172 | 54.45811 | 37084 ft | 528 kts | 88° |
| 2026-05-08 02:21 | 43.07786 | 54.55827 | 37089 ft | 528 kts | 88° |
| 2026-05-08 02:21 | 43.08392 | 54.65853 | 37092 ft | 530 kts | 89° |
| 2026-05-08 02:22 | 43.08991 | 54.75908 | 37087 ft | 530 kts | 89° |
| 2026-05-08 02:22 | 43.09581 | 54.85971 | 37081 ft | 531 kts | 89° |
| 2026-05-08 02:23 | 43.10065 | 54.94336 | 37091 ft | 531 kts | 89° |
| 2026-05-08 02:23 | 43.10641 | 55.04419 | 37095 ft | 532 kts | 89° |
| 2026-05-08 02:24 | 43.11298 | 55.16145 | 37082 ft | 532 kts | 89° |
| 2026-05-08 02:24 | 43.11765 | 55.24601 | 37090 ft | 532 kts | 89° |
| 2026-05-08 02:25 | 43.12313 | 55.34686 | 37080 ft | 531 kts | 89° |
| 2026-05-08 02:25 | 43.12849 | 55.44709 | 37085 ft | 531 kts | 89° |
| 2026-05-08 02:26 | 43.13379 | 55.54798 | 37065 ft | 531 kts | 89° |
| 2026-05-08 02:26 | 43.13901 | 55.64895 | 37086 ft | 532 kts | 89° |
| 2026-05-08 02:27 | 43.14414 | 55.74982 | 37083 ft | 532 kts | 89° |
| 2026-05-08 02:27 | 43.14919 | 55.85097 | 37085 ft | 532 kts | 89° |
| 2026-05-08 02:28 | 43.15414 | 55.95193 | 37083 ft | 531 kts | 90° |
| 2026-05-08 02:28 | 43.15003 | 56.05182 | 37082 ft | 524 kts | 102° |
| 2026-05-08 02:29 | 43.13901 | 56.15034 | 37081 ft | 523 kts | 104° |
| 2026-05-08 02:29 | 43.12684 | 56.24852 | 37077 ft | 524 kts | 104° |
| 2026-05-08 02:30 | 43.11457 | 56.34703 | 37086 ft | 526 kts | 104° |
| 2026-05-08 02:30 | 43.10239 | 56.44578 | 37085 ft | 526 kts | 104° |
| 2026-05-08 02:31 | 43.09022 | 56.54439 | 37081 ft | 526 kts | 104° |
| 2026-05-08 02:31 | 43.07796 | 56.64306 | 37080 ft | 526 kts | 104° |
| 2026-05-08 02:32 | 43.06559 | 56.74172 | 37081 ft | 527 kts | 104° |
| 2026-05-08 02:32 | 43.05309 | 56.84071 | 37078 ft | 528 kts | 104° |
| 2026-05-08 02:33 | 43.04051 | 56.93959 | 37078 ft | 528 kts | 104° |
| 2026-05-08 02:33 | 43.02785 | 57.03848 | 37078 ft | 528 kts | 104° |
| 2026-05-08 02:34 | 43.01518 | 57.13669 | 37058 ft | 528 kts | 105° |
| 2026-05-08 02:34 | 43.00232 | 57.23557 | 37078 ft | 530 kts | 105° |
| 2026-05-08 02:35 | 42.98935 | 57.33470 | 37083 ft | 530 kts | 104° |
| 2026-05-08 02:35 | 42.97629 | 57.43385 | 37075 ft | 530 kts | 105° |
| 2026-05-08 02:36 | 42.96315 | 57.53287 | 37070 ft | 530 kts | 105° |
| 2026-05-08 02:36 | 42.94993 | 57.63180 | 37070 ft | 530 kts | 105° |
| 2026-05-08 02:37 | 42.93659 | 57.73090 | 37071 ft | 531 kts | 105° |
| 2026-05-08 02:37 | 42.92315 | 57.83009 | 37071 ft | 531 kts | 105° |
| 2026-05-08 02:38 | 42.90966 | 57.92905 | 37072 ft | 531 kts | 105° |
| 2026-05-08 02:38 | 42.89606 | 58.02806 | 37072 ft | 531 kts | 105° |
| 2026-05-08 02:39 | 42.88239 | 58.12692 | 37075 ft | 531 kts | 105° |
| 2026-05-08 02:39 | 42.86861 | 58.22596 | 37067 ft | 531 kts | 105° |
| 2026-05-08 02:40 | 42.85476 | 58.32485 | 37066 ft | 531 kts | 105° |
| 2026-05-08 02:40 | 42.84092 | 58.42301 | 37071 ft | 531 kts | 105° |
| 2026-05-08 02:41 | 42.82690 | 58.52178 | 37047 ft | 531 kts | 105° |
| 2026-05-08 02:41 | 42.81279 | 58.62051 | 37067 ft | 531 kts | 105° |
| 2026-05-08 02:42 | 42.79860 | 58.71925 | 37067 ft | 531 kts | 105° |
| 2026-05-08 02:42 | 42.78431 | 58.81797 | 37061 ft | 531 kts | 105° |
| 2026-05-08 02:43 | 42.76997 | 58.91650 | 37066 ft | 531 kts | 105° |
| 2026-05-08 02:43 | 42.75550 | 59.01503 | 37064 ft | 531 kts | 105° |
| 2026-05-08 02:44 | 42.74090 | 59.11344 | 37064 ft | 531 kts | 106° |
| 2026-05-08 02:44 | 42.72597 | 59.21171 | 37064 ft | 530 kts | 106° |
| 2026-05-08 02:45 | 42.71080 | 59.30985 | 37063 ft | 530 kts | 106° |
| 2026-05-08 02:45 | 42.69561 | 59.40774 | 37061 ft | 530 kts | 106° |
| 2026-05-08 02:46 | 42.68037 | 59.50572 | 37064 ft | 530 kts | 106° |
| 2026-05-08 02:46 | 42.66515 | 59.60303 | 37064 ft | 530 kts | 106° |
| 2026-05-08 02:47 | 42.64976 | 59.70091 | 37065 ft | 530 kts | 106° |
| 2026-05-08 02:47 | 42.63428 | 59.79870 | 37056 ft | 530 kts | 106° |
| 2026-05-08 02:48 | 42.61874 | 59.89637 | 37053 ft | 529 kts | 106° |
| 2026-05-08 02:48 | 42.60312 | 59.99394 | 37063 ft | 529 kts | 106° |
| 2026-05-08 02:49 | 42.58741 | 60.09150 | 37061 ft | 529 kts | 106° |
| 2026-05-08 02:49 | 42.57163 | 60.18895 | 37059 ft | 529 kts | 107° |
| 2026-05-08 02:50 | 42.55576 | 60.28637 | 37058 ft | 529 kts | 107° |
| 2026-05-08 02:50 | 42.53982 | 60.38365 | 37052 ft | 529 kts | 106° |
| 2026-05-08 02:51 | 42.52376 | 60.48112 | 37053 ft | 529 kts | 107° |
| 2026-05-08 02:51 | 42.50763 | 60.57849 | 37057 ft | 529 kts | 107° |
| 2026-05-08 02:52 | 42.49143 | 60.67574 | 37048 ft | 529 kts | 107° |
| 2026-05-08 02:52 | 42.47524 | 60.77233 | 37040 ft | 529 kts | 107° |
| 2026-05-08 02:53 | 42.45889 | 60.86942 | 37046 ft | 529 kts | 107° |
| 2026-05-08 02:53 | 42.44243 | 60.96656 | 37045 ft | 529 kts | 107° |
| 2026-05-08 02:54 | 42.42590 | 61.06360 | 37042 ft | 529 kts | 107° |
| 2026-05-08 02:54 | 42.40928 | 61.16062 | 37042 ft | 529 kts | 107° |
| 2026-05-08 02:55 | 42.38421 | 61.30604 | 37040 ft | 529 kts | 107° |
| 2026-05-08 02:56 | 42.36739 | 61.40294 | 37037 ft | 529 kts | 107° |
| 2026-05-08 02:56 | 42.35052 | 61.49956 | 37034 ft | 529 kts | 107° |
| 2026-05-08 02:57 | 42.33355 | 61.59627 | 37035 ft | 529 kts | 107° |
| 2026-05-08 02:57 | 42.31650 | 61.69291 | 37023 ft | 528 kts | 107° |
| 2026-05-08 02:58 | 42.29940 | 61.78935 | 37034 ft | 528 kts | 107° |
| 2026-05-08 02:58 | 42.28224 | 61.88563 | 37034 ft | 527 kts | 107° |
| 2026-05-08 02:59 | 42.26501 | 61.98176 | 37034 ft | 527 kts | 107° |
| 2026-05-08 02:59 | 42.24782 | 62.07719 | 37034 ft | 527 kts | 107° |
| 2026-05-08 03:00 | 42.23043 | 62.17320 | 37034 ft | 526 kts | 107° |
| 2026-05-08 03:00 | 42.21298 | 62.26905 | 37034 ft | 526 kts | 107° |
| 2026-05-08 03:01 | 42.19552 | 62.36454 | 37028 ft | 525 kts | 107° |
| 2026-05-08 03:01 | 42.17794 | 62.46013 | 37031 ft | 525 kts | 107° |
| 2026-05-08 03:02 | 42.16032 | 62.55545 | 37003 ft | 524 kts | 107° |
| 2026-05-08 03:02 | 42.14261 | 62.65083 | 37025 ft | 524 kts | 107° |
| 2026-05-08 03:03 | 42.12483 | 62.74608 | 37012 ft | 524 kts | 107° |
| 2026-05-08 03:03 | 42.10715 | 62.84129 | 37016 ft | 523 kts | 106° |
| 2026-05-08 03:04 | 42.09013 | 62.93648 | 37018 ft | 523 kts | 106° |
| 2026-05-08 03:04 | 42.07313 | 63.03162 | 37015 ft | 522 kts | 106° |
| 2026-05-08 03:05 | 42.05528 | 63.12622 | 37016 ft | 522 kts | 107° |
| 2026-05-08 03:05 | 42.03713 | 63.22004 | 37012 ft | 521 kts | 107° |
| 2026-05-08 03:06 | 42.01889 | 63.31432 | 37012 ft | 521 kts | 107° |
| 2026-05-08 03:06 | 42.00068 | 63.40850 | 37004 ft | 521 kts | 107° |
| 2026-05-08 03:07 | 41.98242 | 63.50272 | 37003 ft | 521 kts | 107° |
| 2026-05-08 03:07 | 41.96408 | 63.59685 | 36999 ft | 521 kts | 107° |
| 2026-05-08 03:08 | 41.94569 | 63.69079 | 37001 ft | 521 kts | 107° |
| 2026-05-08 03:08 | 41.92719 | 63.78481 | 36998 ft | 520 kts | 107° |
| 2026-05-08 03:09 | 41.90866 | 63.87856 | 36986 ft | 520 kts | 107° |
| 2026-05-08 03:09 | 41.89004 | 63.97232 | 37003 ft | 520 kts | 107° |
| 2026-05-08 03:10 | 41.87135 | 64.06600 | 37001 ft | 520 kts | 107° |
| 2026-05-08 03:10 | 41.85264 | 64.15938 | 36999 ft | 518 kts | 108° |
| 2026-05-08 03:11 | 41.83383 | 64.25276 | 36994 ft | 518 kts | 108° |
| 2026-05-08 03:11 | 41.81496 | 64.34602 | 36997 ft | 519 kts | 107° |
| 2026-05-08 03:12 | 41.79601 | 64.43925 | 37007 ft | 518 kts | 107° |
| 2026-05-08 03:12 | 41.77699 | 64.53244 | 36985 ft | 518 kts | 108° |
| 2026-05-08 03:13 | 41.75913 | 64.62599 | 36988 ft | 519 kts | 103° |
| 2026-05-08 03:13 | 41.74598 | 64.72048 | 36995 ft | 520 kts | 102° |
| 2026-05-08 03:14 | 41.73352 | 64.81592 | 36980 ft | 521 kts | 101° |
| 2026-05-08 03:14 | 41.72105 | 64.91150 | 36979 ft | 522 kts | 101° |
| 2026-05-08 03:15 | 41.70842 | 65.00709 | 36973 ft | 521 kts | 101° |
| 2026-05-08 03:15 | 41.69565 | 65.10260 | 36965 ft | 521 kts | 101° |
| 2026-05-08 03:16 | 41.68279 | 65.19804 | 36967 ft | 521 kts | 102° |
| 2026-05-08 03:16 | 41.67206 | 65.27723 | 36940 ft | 521 kts | 101° |
| 2026-05-08 03:17 | 41.65907 | 65.37256 | 36952 ft | 521 kts | 101° |
| 2026-05-08 03:17 | 41.64602 | 65.46777 | 36953 ft | 521 kts | 101° |
| 2026-05-08 03:18 | 41.63285 | 65.56317 | 36947 ft | 521 kts | 102° |
| 2026-05-08 03:18 | 41.61963 | 65.65833 | 36941 ft | 521 kts | 102° |
| 2026-05-08 03:19 | 41.60633 | 65.75353 | 36944 ft | 520 kts | 102° |
| 2026-05-08 03:19 | 41.59299 | 65.84840 | 36936 ft | 520 kts | 102° |
| 2026-05-08 03:20 | 41.57958 | 65.94343 | 36934 ft | 520 kts | 102° |
| 2026-05-08 03:20 | 41.56603 | 66.03819 | 36930 ft | 520 kts | 102° |
| 2026-05-08 03:21 | 41.55239 | 66.13295 | 36933 ft | 520 kts | 102° |
| 2026-05-08 03:21 | 41.53871 | 66.22764 | 36933 ft | 519 kts | 102° |
| 2026-05-08 03:22 | 41.52497 | 66.32220 | 36932 ft | 519 kts | 102° |
| 2026-05-08 03:22 | 41.51117 | 66.41664 | 36933 ft | 519 kts | 102° |
| 2026-05-08 03:23 | 41.49735 | 66.51059 | 36928 ft | 519 kts | 102° |
| 2026-05-08 03:23 | 41.48340 | 66.60493 | 36931 ft | 519 kts | 102° |
| 2026-05-08 03:24 | 41.46961 | 66.69928 | 36936 ft | 518 kts | 101° |
| 2026-05-08 03:24 | 41.45592 | 66.79364 | 36936 ft | 518 kts | 101° |
| 2026-05-08 03:25 | 41.44218 | 66.88769 | 36918 ft | 518 kts | 102° |
| 2026-05-08 03:25 | 41.42829 | 66.98197 | 36938 ft | 517 kts | 101° |
| 2026-05-08 03:26 | 41.41437 | 67.07584 | 36939 ft | 517 kts | 101° |
| 2026-05-08 03:26 | 41.40037 | 67.16963 | 36938 ft | 517 kts | 101° |
| 2026-05-08 03:27 | 41.38628 | 67.26351 | 36934 ft | 516 kts | 101° |
| 2026-05-08 03:27 | 41.37218 | 67.35695 | 36935 ft | 514 kts | 102° |
| 2026-05-08 03:28 | 41.35803 | 67.45014 | 36930 ft | 514 kts | 101° |
| 2026-05-08 03:28 | 41.34380 | 67.54332 | 36933 ft | 514 kts | 102° |
| 2026-05-08 03:29 | 41.32950 | 67.63646 | 36935 ft | 513 kts | 102° |
| 2026-05-08 03:29 | 41.31526 | 67.72864 | 36935 ft | 512 kts | 102° |
| 2026-05-08 03:30 | 41.29359 | 67.86796 | 36942 ft | 512 kts | 102° |
| 2026-05-08 03:31 | 41.27239 | 68.05501 | 36940 ft | 512 kts | 96° |
| 2026-05-08 03:32 | 41.25992 | 68.19612 | 36954 ft | 512 kts | 96° |
| 2026-05-08 03:32 | 41.25147 | 68.29021 | 36952 ft | 512 kts | 96° |
| 2026-05-08 03:33 | 41.24292 | 68.38390 | 36955 ft | 511 kts | 96° |
| 2026-05-08 03:33 | 41.23426 | 68.47766 | 36955 ft | 511 kts | 96° |
| 2026-05-08 03:34 | 41.22553 | 68.57140 | 36960 ft | 511 kts | 97° |
| 2026-05-08 03:34 | 41.21679 | 68.66440 | 36957 ft | 510 kts | 97° |
| 2026-05-08 03:35 | 41.20792 | 68.75794 | 36959 ft | 510 kts | 97° |
| 2026-05-08 03:35 | 41.19899 | 68.85138 | 36965 ft | 510 kts | 97° |
| 2026-05-08 03:36 | 41.19223 | 68.94495 | 36974 ft | 508 kts | 92° |
| 2026-05-08 03:36 | 41.18933 | 69.03873 | 36984 ft | 508 kts | 91° |
| 2026-05-08 03:37 | 41.18699 | 69.13239 | 36991 ft | 508 kts | 91° |
| 2026-05-08 03:37 | 41.18462 | 69.22611 | 36994 ft | 508 kts | 91° |
| 2026-05-08 03:38 | 41.17904 | 69.31918 | 36994 ft | 506 kts | 96° |
| 2026-05-08 03:38 | 41.17034 | 69.41203 | 36996 ft | 506 kts | 97° |
| 2026-05-08 03:39 | 41.16188 | 69.50469 | 36979 ft | 506 kts | 96° |
| 2026-05-08 03:39 | 41.15399 | 69.59691 | 37017 ft | 506 kts | 96° |
| 2026-05-08 03:40 | 41.14624 | 69.68947 | 37046 ft | 505 kts | 96° |
| 2026-05-08 03:40 | 41.13843 | 69.78207 | 37045 ft | 505 kts | 96° |
| 2026-05-08 03:41 | 41.13053 | 69.87452 | 37077 ft | 505 kts | 96° |
| 2026-05-08 03:41 | 41.12254 | 69.96694 | 37098 ft | 503 kts | 96° |
| 2026-05-08 03:42 | 41.11451 | 70.05912 | 37107 ft | 504 kts | 96° |
| 2026-05-08 03:42 | 41.10638 | 70.15145 | 37121 ft | 504 kts | 96° |
| 2026-05-08 03:43 | 41.10032 | 70.24376 | 37141 ft | 502 kts | 88° |
| 2026-05-08 03:43 | 41.10497 | 70.33599 | 37134 ft | 501 kts | 84° |
| 2026-05-08 03:44 | 41.11170 | 70.42800 | 37157 ft | 501 kts | 83° |
| 2026-05-08 03:44 | 41.11865 | 70.52001 | 37161 ft | 501 kts | 83° |
| 2026-05-08 03:45 | 41.12534 | 70.61184 | 37165 ft | 500 kts | 83° |
| 2026-05-08 03:45 | 41.13182 | 70.70358 | 37161 ft | 499 kts | 83° |
| 2026-05-08 03:46 | 41.13826 | 70.79544 | 37144 ft | 500 kts | 84° |
| 2026-05-08 03:46 | 41.14457 | 70.88729 | 37139 ft | 500 kts | 84° |
| 2026-05-08 03:47 | 41.15072 | 70.97889 | 37131 ft | 498 kts | 84° |
| 2026-05-08 03:47 | 41.15681 | 71.06970 | 37109 ft | 498 kts | 84° |
| 2026-05-08 03:48 | 41.16294 | 71.16112 | 37094 ft | 498 kts | 84° |
| 2026-05-08 03:48 | 41.16896 | 71.25268 | 37083 ft | 498 kts | 84° |
| 2026-05-08 03:49 | 41.17489 | 71.34416 | 37068 ft | 498 kts | 84° |
| 2026-05-08 03:49 | 41.18076 | 71.43580 | 37064 ft | 498 kts | 84° |
| 2026-05-08 03:50 | 41.18655 | 71.52741 | 37055 ft | 498 kts | 84° |
| 2026-05-08 03:50 | 41.19227 | 71.61895 | 37053 ft | 497 kts | 84° |
| 2026-05-08 03:51 | 41.19790 | 71.71029 | 37057 ft | 496 kts | 84° |
| 2026-05-08 03:51 | 41.20345 | 71.80149 | 37059 ft | 496 kts | 84° |
| 2026-05-08 03:52 | 41.20894 | 71.89275 | 37067 ft | 496 kts | 84° |
| 2026-05-08 03:52 | 41.21426 | 71.98383 | 37077 ft | 493 kts | 84° |
| 2026-05-08 03:53 | 41.21951 | 72.07457 | 37075 ft | 492 kts | 84° |
| 2026-05-08 03:53 | 41.22466 | 72.16468 | 37086 ft | 492 kts | 84° |
| 2026-05-08 03:54 | 41.22982 | 72.25535 | 37084 ft | 492 kts | 84° |
| 2026-05-08 03:54 | 41.23496 | 72.34598 | 37085 ft | 492 kts | 84° |
| 2026-05-08 03:55 | 41.24000 | 72.43657 | 37102 ft | 492 kts | 84° |
| 2026-05-08 03:55 | 41.24499 | 72.52716 | 37099 ft | 492 kts | 84° |
| 2026-05-08 03:56 | 41.24991 | 72.61774 | 37121 ft | 492 kts | 84° |
| 2026-05-08 03:56 | 41.25471 | 72.70828 | 37133 ft | 491 kts | 84° |
| 2026-05-08 03:57 | 41.25939 | 72.79886 | 37132 ft | 491 kts | 84° |
| 2026-05-08 03:57 | 41.26400 | 72.88952 | 37146 ft | 491 kts | 85° |
| 2026-05-08 03:58 | 41.26855 | 72.98016 | 37169 ft | 491 kts | 84° |
| 2026-05-08 03:58 | 41.27304 | 73.07079 | 37162 ft | 492 kts | 85° |
| 2026-05-08 03:59 | 41.27747 | 73.16149 | 37164 ft | 491 kts | 84° |
| 2026-05-08 03:59 | 41.28181 | 73.25214 | 37183 ft | 492 kts | 84° |
| 2026-05-08 04:00 | 41.28609 | 73.34287 | 37187 ft | 492 kts | 85° |
| 2026-05-08 04:00 | 41.29030 | 73.43317 | 37208 ft | 493 kts | 85° |
| 2026-05-08 04:01 | 41.29444 | 73.52401 | 37225 ft | 493 kts | 85° |
| 2026-05-08 04:01 | 41.29848 | 73.61508 | 37222 ft | 493 kts | 85° |
| 2026-05-08 04:02 | 41.30249 | 73.70603 | 37228 ft | 493 kts | 85° |
| 2026-05-08 04:02 | 41.30641 | 73.79677 | 37233 ft | 491 kts | 85° |
| 2026-05-08 04:03 | 41.31025 | 73.88752 | 37235 ft | 491 kts | 85° |
| 2026-05-08 04:03 | 41.31593 | 74.02350 | 37240 ft | 491 kts | 84° |
| 2026-05-08 04:04 | 41.32200 | 74.11393 | 37235 ft | 490 kts | 82° |
| 2026-05-08 04:04 | 41.32915 | 74.20401 | 37239 ft | 490 kts | 82° |
| 2026-05-08 04:05 | 41.33594 | 74.29406 | 37244 ft | 490 kts | 83° |
| 2026-05-08 04:05 | 41.34236 | 74.38430 | 37249 ft | 490 kts | 83° |
| 2026-05-08 04:06 | 41.34859 | 74.47446 | 37240 ft | 489 kts | 83° |
| 2026-05-08 04:06 | 41.35474 | 74.56451 | 37251 ft | 488 kts | 83° |
| 2026-05-08 04:07 | 41.36082 | 74.65447 | 37256 ft | 488 kts | 83° |
| 2026-05-08 04:07 | 41.36585 | 74.72930 | 37258 ft | 488 kts | 83° |
| 2026-05-08 04:08 | 41.37185 | 74.81932 | 37256 ft | 488 kts | 83° |
| 2026-05-08 04:08 | 41.37875 | 74.92404 | 37259 ft | 488 kts | 83° |
| 2026-05-08 04:09 | 41.38362 | 74.99947 | 37253 ft | 488 kts | 83° |
| 2026-05-08 04:09 | 41.38936 | 75.08961 | 37255 ft | 488 kts | 83° |
| 2026-05-08 04:10 | 41.39503 | 75.17945 | 37258 ft | 486 kts | 83° |
| 2026-05-08 04:10 | 41.40060 | 75.26856 | 37253 ft | 486 kts | 83° |
| 2026-05-08 04:11 | 41.40614 | 75.35830 | 37252 ft | 486 kts | 83° |
| 2026-05-08 04:11 | 41.41160 | 75.44804 | 37258 ft | 486 kts | 83° |
| 2026-05-08 04:12 | 41.41701 | 75.53776 | 37239 ft | 486 kts | 83° |
| 2026-05-08 04:12 | 41.42231 | 75.62743 | 37242 ft | 486 kts | 83° |
| 2026-05-08 04:13 | 41.42756 | 75.71719 | 37331 ft | 486 kts | 83° |
| 2026-05-08 04:13 | 41.43017 | 75.76211 | 37492 ft | 486 kts | 83° |
| 2026-05-08 04:13 | 41.43277 | 75.80697 | 37662 ft | 486 kts | 83° |
| 2026-05-08 04:14 | 41.43534 | 75.85188 | 37830 ft | 486 kts | 83° |
| 2026-05-08 04:14 | 41.43790 | 75.89681 | 37987 ft | 486 kts | 83° |
| 2026-05-08 04:14 | 41.44043 | 75.94169 | 38139 ft | 486 kts | 83° |
| 2026-05-08 04:14 | 41.44295 | 75.98668 | 38296 ft | 486 kts | 83° |
| 2026-05-08 04:15 | 41.44546 | 76.03167 | 38441 ft | 486 kts | 83° |
| 2026-05-08 04:15 | 41.44794 | 76.07663 | 38589 ft | 486 kts | 83° |
| 2026-05-08 04:15 | 41.45040 | 76.12149 | 38728 ft | 486 kts | 83° |
| 2026-05-08 04:15 | 41.45285 | 76.16643 | 38858 ft | 486 kts | 83° |
| 2026-05-08 04:16 | 41.45529 | 76.21138 | 38993 ft | 485 kts | 83° |
| 2026-05-08 04:16 | 41.45770 | 76.25629 | 39103 ft | 486 kts | 83° |
| 2026-05-08 04:16 | 41.46248 | 76.34617 | 39239 ft | 487 kts | 83° |
| 2026-05-08 04:17 | 41.46715 | 76.43554 | 39244 ft | 485 kts | 83° |
| 2026-05-08 04:17 | 41.47179 | 76.52565 | 39250 ft | 484 kts | 83° |
| 2026-05-08 04:18 | 41.47630 | 76.61439 | 39247 ft | 482 kts | 83° |
| 2026-05-08 04:18 | 41.48076 | 76.70358 | 39254 ft | 482 kts | 83° |
| 2026-05-08 04:19 | 41.48512 | 76.79284 | 39264 ft | 482 kts | 84° |
| 2026-05-08 04:19 | 41.48945 | 76.88218 | 39261 ft | 483 kts | 83° |
| 2026-05-08 04:20 | 41.49375 | 76.97142 | 39257 ft | 481 kts | 83° |
| 2026-05-08 04:20 | 41.49800 | 77.06063 | 39268 ft | 482 kts | 84° |
| 2026-05-08 04:21 | 41.50207 | 77.14972 | 39288 ft | 482 kts | 84° |
| 2026-05-08 04:21 | 41.50610 | 77.23894 | 39293 ft | 482 kts | 84° |
| 2026-05-08 04:22 | 41.51008 | 77.32802 | 39288 ft | 481 kts | 84° |
| 2026-05-08 04:22 | 41.51398 | 77.41706 | 39301 ft | 480 kts | 84° |
| 2026-05-08 04:23 | 41.51781 | 77.50613 | 39298 ft | 481 kts | 84° |
| 2026-05-08 04:23 | 41.52157 | 77.59509 | 39310 ft | 480 kts | 84° |
| 2026-05-08 04:24 | 41.52523 | 77.68366 | 39309 ft | 476 kts | 84° |
| 2026-05-08 04:24 | 41.52881 | 77.77175 | 39306 ft | 475 kts | 84° |
| 2026-05-08 04:25 | 41.53234 | 77.85977 | 39306 ft | 475 kts | 84° |
| 2026-05-08 04:25 | 41.53576 | 77.94735 | 39311 ft | 476 kts | 84° |
| 2026-05-08 04:26 | 41.53914 | 78.03535 | 39307 ft | 474 kts | 84° |
| 2026-05-08 04:26 | 41.54245 | 78.12337 | 39296 ft | 474 kts | 84° |
| 2026-05-08 04:27 | 41.54573 | 78.21115 | 39300 ft | 474 kts | 84° |
| 2026-05-08 04:27 | 41.54891 | 78.29893 | 39305 ft | 474 kts | 85° |
| 2026-05-08 04:28 | 41.55201 | 78.38690 | 39304 ft | 474 kts | 85° |
| 2026-05-08 04:28 | 41.55504 | 78.47487 | 39301 ft | 474 kts | 85° |
| 2026-05-08 04:29 | 41.55801 | 78.56272 | 39300 ft | 474 kts | 85° |
| 2026-05-08 04:29 | 41.56091 | 78.65066 | 39298 ft | 474 kts | 85° |
| 2026-05-08 04:30 | 41.56374 | 78.73849 | 39280 ft | 472 kts | 85° |
| 2026-05-08 04:30 | 41.56429 | 78.82604 | 39267 ft | 472 kts | 94° |
| 2026-05-08 04:31 | 41.55156 | 78.91170 | 39244 ft | 474 kts | 102° |
| 2026-05-08 04:31 | 41.53489 | 78.99698 | 39211 ft | 475 kts | 103° |
| 2026-05-08 04:32 | 41.51755 | 79.08214 | 39228 ft | 476 kts | 103° |
| 2026-05-08 04:32 | 41.50028 | 79.16730 | 39149 ft | 475 kts | 103° |
| 2026-05-08 04:33 | 41.48316 | 79.25237 | 39148 ft | 475 kts | 103° |
| 2026-05-08 04:33 | 41.46605 | 79.33734 | 39116 ft | 475 kts | 103° |
| 2026-05-08 04:34 | 41.44885 | 79.42243 | 39097 ft | 475 kts | 103° |
| 2026-05-08 04:34 | 41.43159 | 79.50733 | 39075 ft | 475 kts | 103° |
| 2026-05-08 04:35 | 41.41428 | 79.59215 | 39069 ft | 475 kts | 103° |
| 2026-05-08 04:35 | 41.39688 | 79.67703 | 39069 ft | 475 kts | 103° |
| 2026-05-08 04:36 | 41.37943 | 79.76175 | 39056 ft | 474 kts | 103° |
| 2026-05-08 04:36 | 41.36193 | 79.84645 | 39056 ft | 474 kts | 103° |
| 2026-05-08 04:37 | 41.34439 | 79.93099 | 39060 ft | 474 kts | 103° |
| 2026-05-08 04:37 | 41.32677 | 80.01554 | 39038 ft | 474 kts | 103° |
| 2026-05-08 04:38 | 41.30909 | 80.10005 | 39038 ft | 474 kts | 103° |
| 2026-05-08 04:38 | 41.29137 | 80.18441 | 39050 ft | 474 kts | 103° |
| 2026-05-08 04:39 | 41.27359 | 80.26875 | 39032 ft | 474 kts | 103° |
| 2026-05-08 04:39 | 41.25576 | 80.35300 | 39032 ft | 474 kts | 103° |
| 2026-05-08 04:40 | 41.23774 | 80.43722 | 39032 ft | 474 kts | 103° |
| 2026-05-08 04:40 | 41.21964 | 80.52125 | 39031 ft | 474 kts | 103° |
| 2026-05-08 04:41 | 41.20157 | 80.60489 | 39034 ft | 474 kts | 103° |
| 2026-05-08 04:41 | 41.18333 | 80.68908 | 39025 ft | 475 kts | 104° |
| 2026-05-08 04:42 | 41.16501 | 80.77334 | 39015 ft | 475 kts | 104° |
| 2026-05-08 04:42 | 41.14664 | 80.85748 | 39028 ft | 475 kts | 104° |
| 2026-05-08 04:43 | 41.12821 | 80.94157 | 39031 ft | 475 kts | 104° |
| 2026-05-08 04:43 | 41.10968 | 81.02583 | 39020 ft | 476 kts | 104° |
| 2026-05-08 04:44 | 41.09107 | 81.11006 | 39032 ft | 476 kts | 104° |
| 2026-05-08 04:44 | 41.07241 | 81.19422 | 39018 ft | 476 kts | 104° |
| 2026-05-08 04:45 | 41.05369 | 81.27835 | 39029 ft | 476 kts | 104° |
| 2026-05-08 04:45 | 41.03490 | 81.36247 | 39027 ft | 476 kts | 104° |
| 2026-05-08 04:46 | 41.01604 | 81.44653 | 39022 ft | 476 kts | 104° |
| 2026-05-08 04:46 | 40.99712 | 81.53056 | 39027 ft | 476 kts | 104° |
| 2026-05-08 04:47 | 40.97829 | 81.61389 | 39036 ft | 476 kts | 104° |
| 2026-05-08 04:47 | 40.95949 | 81.69787 | 39029 ft | 475 kts | 103° |
| 2026-05-08 04:48 | 40.94342 | 81.78247 | 39022 ft | 473 kts | 101° |
| 2026-05-08 04:48 | 40.92813 | 81.86707 | 39024 ft | 473 kts | 102° |
| 2026-05-08 04:49 | 40.91237 | 81.95169 | 39020 ft | 473 kts | 102° |
| 2026-05-08 04:49 | 40.89628 | 82.03600 | 39022 ft | 473 kts | 102° |
| 2026-05-08 04:50 | 40.88002 | 82.12039 | 39023 ft | 473 kts | 102° |
| 2026-05-08 04:50 | 40.86373 | 82.20463 | 39023 ft | 474 kts | 102° |
| 2026-05-08 04:51 | 40.84736 | 82.28895 | 39023 ft | 473 kts | 102° |
| 2026-05-08 04:51 | 40.83095 | 82.37315 | 39019 ft | 474 kts | 102° |
| 2026-05-08 04:52 | 40.81450 | 82.45724 | 39023 ft | 473 kts | 102° |
| 2026-05-08 04:52 | 40.79801 | 82.54115 | 39023 ft | 472 kts | 102° |
| 2026-05-08 04:53 | 40.78147 | 82.62501 | 39021 ft | 472 kts | 102° |
| 2026-05-08 04:53 | 40.76488 | 82.70874 | 39024 ft | 472 kts | 103° |
| 2026-05-08 04:54 | 40.74821 | 82.79254 | 39027 ft | 472 kts | 103° |
| 2026-05-08 04:54 | 40.73160 | 82.87566 | 39022 ft | 471 kts | 103° |
| 2026-05-08 04:55 | 40.71486 | 82.95912 | 39018 ft | 471 kts | 103° |
| 2026-05-08 04:55 | 40.69808 | 83.04249 | 39022 ft | 471 kts | 103° |
| 2026-05-08 04:56 | 40.68123 | 83.12581 | 39020 ft | 470 kts | 103° |
| 2026-05-08 04:56 | 40.66432 | 83.20911 | 39020 ft | 470 kts | 103° |
| 2026-05-08 04:57 | 40.64738 | 83.29217 | 39022 ft | 470 kts | 103° |
| 2026-05-08 04:57 | 40.63039 | 83.37522 | 39024 ft | 470 kts | 103° |
| 2026-05-08 04:58 | 40.61334 | 83.45818 | 39023 ft | 470 kts | 103° |
| 2026-05-08 04:58 | 40.59623 | 83.54108 | 39029 ft | 470 kts | 103° |
| 2026-05-08 04:59 | 40.58197 | 83.60996 | 39023 ft | 469 kts | 103° |
| 2026-05-08 04:59 | 40.56477 | 83.69274 | 39026 ft | 469 kts | 103° |
| 2026-05-08 05:00 | 40.54752 | 83.77543 | 39029 ft | 469 kts | 103° |
| 2026-05-08 05:00 | 40.53020 | 83.85810 | 39029 ft | 469 kts | 103° |
| 2026-05-08 05:01 | 40.51287 | 83.94054 | 39022 ft | 468 kts | 103° |
| 2026-05-08 05:01 | 40.49608 | 84.02260 | 39021 ft | 468 kts | 103° |
| 2026-05-08 05:02 | 40.47950 | 84.10513 | 39018 ft | 468 kts | 103° |
| 2026-05-08 05:02 | 40.46282 | 84.18761 | 39018 ft | 468 kts | 103° |
| 2026-05-08 05:03 | 40.44599 | 84.27004 | 39017 ft | 468 kts | 103° |
| 2026-05-08 05:03 | 40.42904 | 84.35257 | 39018 ft | 468 kts | 103° |
| 2026-05-08 05:04 | 40.41205 | 84.43494 | 39019 ft | 468 kts | 103° |
| 2026-05-08 05:04 | 40.39503 | 84.51721 | 39020 ft | 468 kts | 103° |
| 2026-05-08 05:05 | 40.37793 | 84.59952 | 39021 ft | 468 kts | 103° |
| 2026-05-08 05:05 | 40.36077 | 84.68182 | 39027 ft | 468 kts | 103° |
| 2026-05-08 05:06 | 40.34357 | 84.76396 | 39022 ft | 468 kts | 103° |
| 2026-05-08 05:06 | 40.32628 | 84.84620 | 39025 ft | 468 kts | 103° |
| 2026-05-08 05:07 | 40.30896 | 84.92830 | 39025 ft | 468 kts | 104° |
| 2026-05-08 05:07 | 40.29157 | 85.01041 | 39022 ft | 468 kts | 104° |
| 2026-05-08 05:08 | 40.27414 | 85.09240 | 39029 ft | 467 kts | 104° |
| 2026-05-08 05:08 | 40.25664 | 85.17437 | 39022 ft | 467 kts | 104° |
| 2026-05-08 05:09 | 40.23908 | 85.25633 | 39027 ft | 467 kts | 104° |
| 2026-05-08 05:09 | 40.22158 | 85.33772 | 39028 ft | 468 kts | 104° |
| 2026-05-08 05:10 | 40.19506 | 85.46042 | 39028 ft | 468 kts | 104° |
| 2026-05-08 05:11 | 40.17730 | 85.54223 | 39027 ft | 468 kts | 104° |
| 2026-05-08 05:11 | 40.15948 | 85.62400 | 39025 ft | 467 kts | 104° |
| 2026-05-08 05:12 | 40.14165 | 85.70550 | 39025 ft | 467 kts | 104° |
| 2026-05-08 05:12 | 40.12372 | 85.78714 | 39023 ft | 467 kts | 104° |
| 2026-05-08 05:13 | 40.10575 | 85.86872 | 39020 ft | 467 kts | 104° |
| 2026-05-08 05:13 | 40.08774 | 85.95015 | 39014 ft | 467 kts | 104° |
| 2026-05-08 05:14 | 40.06944 | 86.03150 | 39017 ft | 467 kts | 106° |
| 2026-05-08 05:14 | 40.04786 | 86.11155 | 39019 ft | 468 kts | 109° |
| 2026-05-08 05:15 | 40.02524 | 86.19111 | 39023 ft | 468 kts | 108° |
| 2026-05-08 05:15 | 40.00294 | 86.27102 | 39022 ft | 468 kts | 108° |
| 2026-05-08 05:16 | 39.98101 | 86.35081 | 39017 ft | 468 kts | 108° |
| 2026-05-08 05:16 | 39.95908 | 86.43074 | 39025 ft | 468 kts | 108° |
| 2026-05-08 05:17 | 39.93713 | 86.51051 | 39008 ft | 468 kts | 108° |
| 2026-05-08 05:17 | 39.91509 | 86.59024 | 39021 ft | 468 kts | 108° |
| 2026-05-08 05:18 | 39.89297 | 86.66997 | 39009 ft | 468 kts | 108° |
| 2026-05-08 05:18 | 39.87080 | 86.74968 | 39020 ft | 468 kts | 108° |
| 2026-05-08 05:19 | 39.84856 | 86.82933 | 39012 ft | 468 kts | 108° |
| 2026-05-08 05:19 | 39.82643 | 86.90838 | 39017 ft | 468 kts | 108° |
| 2026-05-08 05:20 | 39.80410 | 86.98790 | 39014 ft | 468 kts | 108° |
| 2026-05-08 05:20 | 39.78171 | 87.06738 | 39008 ft | 469 kts | 108° |
| 2026-05-08 05:21 | 39.75921 | 87.14702 | 39022 ft | 470 kts | 109° |
| 2026-05-08 05:21 | 39.73659 | 87.22683 | 39010 ft | 471 kts | 109° |
| 2026-05-08 05:22 | 39.71390 | 87.30662 | 39013 ft | 471 kts | 109° |
| 2026-05-08 05:22 | 39.69113 | 87.38647 | 39011 ft | 471 kts | 109° |
| 2026-05-08 05:23 | 39.66831 | 87.46624 | 39009 ft | 471 kts | 109° |
| 2026-05-08 05:23 | 39.64545 | 87.54592 | 39008 ft | 471 kts | 109° |
| 2026-05-08 05:24 | 39.62251 | 87.62562 | 39006 ft | 471 kts | 109° |
| 2026-05-08 05:24 | 39.59954 | 87.70519 | 39007 ft | 471 kts | 109° |
| 2026-05-08 05:25 | 39.57651 | 87.78476 | 39015 ft | 472 kts | 109° |
| 2026-05-08 05:25 | 39.55339 | 87.86439 | 39010 ft | 472 kts | 109° |
| 2026-05-08 05:26 | 39.53016 | 87.94410 | 39022 ft | 474 kts | 109° |
| 2026-05-08 05:26 | 39.50683 | 88.02395 | 39011 ft | 474 kts | 109° |
| 2026-05-08 05:27 | 39.48347 | 88.10366 | 39011 ft | 474 kts | 109° |
| 2026-05-08 05:27 | 39.46018 | 88.18288 | 39010 ft | 474 kts | 110° |
| 2026-05-08 05:28 | 39.43666 | 88.26266 | 39010 ft | 475 kts | 109° |
| 2026-05-08 05:28 | 39.41308 | 88.34242 | 39007 ft | 475 kts | 110° |
| 2026-05-08 05:29 | 39.38943 | 88.42216 | 39007 ft | 475 kts | 110° |
| 2026-05-08 05:29 | 39.36580 | 88.50159 | 39014 ft | 475 kts | 110° |
| 2026-05-08 05:30 | 39.34206 | 88.58119 | 39008 ft | 475 kts | 110° |
| 2026-05-08 05:30 | 39.31820 | 88.66092 | 39013 ft | 476 kts | 110° |
| 2026-05-08 05:31 | 39.29425 | 88.74073 | 39025 ft | 477 kts | 110° |
| 2026-05-08 05:31 | 39.27023 | 88.82050 | 39026 ft | 477 kts | 110° |
| 2026-05-08 05:32 | 39.24615 | 88.90027 | 39027 ft | 477 kts | 110° |
| 2026-05-08 05:32 | 39.22200 | 88.98000 | 39032 ft | 477 kts | 110° |
| 2026-05-08 05:33 | 39.19780 | 89.05971 | 39058 ft | 477 kts | 110° |
| 2026-05-08 05:33 | 39.17353 | 89.13939 | 39064 ft | 477 kts | 110° |
| 2026-05-08 05:34 | 39.14921 | 89.21904 | 39061 ft | 478 kts | 110° |
| 2026-05-08 05:34 | 39.12484 | 89.29858 | 39072 ft | 478 kts | 111° |
| 2026-05-08 05:35 | 39.10032 | 89.37838 | 39111 ft | 479 kts | 111° |
| 2026-05-08 05:35 | 39.07574 | 89.45815 | 39129 ft | 480 kts | 111° |
| 2026-05-08 05:36 | 39.05108 | 89.53793 | 39127 ft | 480 kts | 111° |
| 2026-05-08 05:36 | 39.02638 | 89.61762 | 39181 ft | 480 kts | 111° |
| 2026-05-08 05:37 | 39.00162 | 89.69729 | 39195 ft | 480 kts | 111° |
| 2026-05-08 05:37 | 38.97697 | 89.77635 | 39195 ft | 480 kts | 111° |
| 2026-05-08 05:38 | 38.95210 | 89.85592 | 39194 ft | 480 kts | 111° |
| 2026-05-08 05:38 | 38.92716 | 89.93543 | 39228 ft | 480 kts | 111° |
| 2026-05-08 05:39 | 38.90219 | 90.01487 | 39237 ft | 480 kts | 111° |
| 2026-05-08 05:39 | 38.87713 | 90.09436 | 39236 ft | 481 kts | 111° |
| 2026-05-08 05:40 | 38.85202 | 90.17380 | 39247 ft | 481 kts | 111° |
| 2026-05-08 05:40 | 38.82682 | 90.25328 | 39260 ft | 481 kts | 111° |
| 2026-05-08 05:41 | 38.80156 | 90.33269 | 39275 ft | 481 kts | 112° |
| 2026-05-08 05:41 | 38.77629 | 90.41204 | 39273 ft | 481 kts | 112° |
| 2026-05-08 05:42 | 38.75092 | 90.49136 | 39281 ft | 481 kts | 112° |
| 2026-05-08 05:42 | 38.72551 | 90.57061 | 39282 ft | 481 kts | 112° |
| 2026-05-08 05:43 | 38.70004 | 90.64981 | 39289 ft | 481 kts | 112° |
| 2026-05-08 05:43 | 38.67472 | 90.72909 | 39286 ft | 481 kts | 110° |
| 2026-05-08 05:44 | 38.65208 | 90.80965 | 39285 ft | 482 kts | 109° |
| 2026-05-08 05:44 | 38.63019 | 90.89089 | 39286 ft | 483 kts | 109° |
| 2026-05-08 05:45 | 38.60787 | 90.97201 | 39274 ft | 484 kts | 110° |
| 2026-05-08 05:45 | 38.58520 | 91.05296 | 39274 ft | 484 kts | 110° |
| 2026-05-08 05:46 | 38.56239 | 91.13381 | 39256 ft | 483 kts | 110° |
| 2026-05-08 05:46 | 38.53968 | 91.21408 | 39254 ft | 484 kts | 110° |
| 2026-05-08 05:47 | 38.51671 | 91.29503 | 39244 ft | 485 kts | 110° |
| 2026-05-08 05:47 | 38.49368 | 91.37600 | 39236 ft | 485 kts | 110° |
| 2026-05-08 05:48 | 38.47063 | 91.45681 | 39234 ft | 485 kts | 110° |
| 2026-05-08 05:48 | 38.44750 | 91.53764 | 39232 ft | 485 kts | 110° |
| 2026-05-08 05:49 | 38.42820 | 91.60487 | 39230 ft | 485 kts | 111° |
| 2026-05-08 05:49 | 38.40495 | 91.68567 | 39227 ft | 486 kts | 111° |
| 2026-05-08 05:50 | 38.38158 | 91.76662 | 39228 ft | 487 kts | 111° |
| 2026-05-08 05:50 | 38.35814 | 91.84758 | 39219 ft | 487 kts | 111° |
| 2026-05-08 05:51 | 38.33464 | 91.92852 | 39219 ft | 487 kts | 111° |
| 2026-05-08 05:51 | 38.31104 | 92.00957 | 39210 ft | 489 kts | 111° |
| 2026-05-08 05:52 | 38.28736 | 92.09062 | 39208 ft | 489 kts | 111° |
| 2026-05-08 05:52 | 38.26358 | 92.17173 | 39198 ft | 489 kts | 111° |
| 2026-05-08 05:53 | 38.23979 | 92.25271 | 39198 ft | 489 kts | 111° |
| 2026-05-08 05:53 | 38.21606 | 92.33320 | 39189 ft | 489 kts | 112° |
| 2026-05-08 05:54 | 38.19214 | 92.41412 | 39188 ft | 489 kts | 112° |
| 2026-05-08 05:54 | 38.16815 | 92.49501 | 39187 ft | 489 kts | 112° |
| 2026-05-08 05:55 | 38.14154 | 92.57456 | 39191 ft | 489 kts | 117° |
| 2026-05-08 05:55 | 38.11146 | 92.65214 | 39189 ft | 490 kts | 118° |
| 2026-05-08 05:56 | 38.08146 | 92.72985 | 39187 ft | 491 kts | 118° |
| 2026-05-08 05:56 | 38.05193 | 92.80804 | 39187 ft | 491 kts | 117° |
| 2026-05-08 05:57 | 38.02262 | 92.88627 | 39187 ft | 491 kts | 117° |
| 2026-05-08 05:57 | 37.99328 | 92.96456 | 39184 ft | 491 kts | 117° |
| 2026-05-08 05:58 | 37.96389 | 93.04270 | 39183 ft | 491 kts | 117° |
| 2026-05-08 05:58 | 37.93445 | 93.12079 | 39184 ft | 492 kts | 118° |
| 2026-05-08 05:59 | 37.90480 | 93.19911 | 39182 ft | 493 kts | 118° |
| 2026-05-08 05:59 | 37.87502 | 93.27752 | 39183 ft | 495 kts | 118° |
| 2026-05-08 06:00 | 37.84518 | 93.35601 | 39176 ft | 495 kts | 118° |
| 2026-05-08 06:00 | 37.81532 | 93.43436 | 39173 ft | 495 kts | 118° |
| 2026-05-08 06:01 | 37.78537 | 93.51273 | 39173 ft | 495 kts | 118° |
| 2026-05-08 06:01 | 37.75560 | 93.59038 | 39169 ft | 495 kts | 118° |
| 2026-05-08 06:02 | 37.72554 | 93.66864 | 39169 ft | 494 kts | 119° |
| 2026-05-08 06:02 | 37.69549 | 93.74665 | 39171 ft | 494 kts | 119° |
| 2026-05-08 06:03 | 37.66536 | 93.82467 | 39152 ft | 495 kts | 119° |
| 2026-05-08 06:03 | 37.63510 | 93.90284 | 39160 ft | 496 kts | 119° |
| 2026-05-08 06:04 | 37.60472 | 93.98108 | 39154 ft | 497 kts | 119° |
| 2026-05-08 06:04 | 37.57425 | 94.05941 | 39152 ft | 497 kts | 120° |
| 2026-05-08 06:05 | 37.54374 | 94.13764 | 39149 ft | 497 kts | 120° |
| 2026-05-08 06:05 | 37.51322 | 94.21570 | 39150 ft | 497 kts | 120° |
| 2026-05-08 06:06 | 37.48257 | 94.29388 | 39149 ft | 498 kts | 120° |
| 2026-05-08 06:06 | 37.45210 | 94.37143 | 39150 ft | 498 kts | 120° |
| 2026-05-08 06:07 | 37.42135 | 94.44948 | 39146 ft | 498 kts | 120° |
| 2026-05-08 06:07 | 37.39059 | 94.52737 | 39146 ft | 498 kts | 120° |
| 2026-05-08 06:08 | 37.35972 | 94.60532 | 39132 ft | 498 kts | 121° |
| 2026-05-08 06:08 | 37.32883 | 94.68315 | 39144 ft | 498 kts | 121° |
| 2026-05-08 06:09 | 37.29786 | 94.76098 | 39144 ft | 498 kts | 121° |
| 2026-05-08 06:09 | 37.26684 | 94.83874 | 39143 ft | 498 kts | 121° |
| 2026-05-08 06:10 | 37.23575 | 94.91651 | 39135 ft | 498 kts | 121° |
| 2026-05-08 06:10 | 37.20464 | 94.99412 | 39135 ft | 498 kts | 121° |
| 2026-05-08 06:11 | 37.17342 | 95.07180 | 39138 ft | 499 kts | 121° |
| 2026-05-08 06:11 | 37.14215 | 95.14942 | 39139 ft | 499 kts | 121° |
| 2026-05-08 06:12 | 37.11097 | 95.22664 | 39137 ft | 499 kts | 122° |
| 2026-05-08 06:12 | 37.07932 | 95.30481 | 39138 ft | 500 kts | 122° |
| 2026-05-08 06:13 | 37.04787 | 95.38233 | 39147 ft | 500 kts | 122° |
| 2026-05-08 06:13 | 37.01651 | 95.45944 | 39146 ft | 501 kts | 122° |
| 2026-05-08 06:14 | 36.98501 | 95.53709 | 39149 ft | 501 kts | 122° |
| 2026-05-08 06:14 | 36.95425 | 95.61538 | 39148 ft | 501 kts | 121° |
| 2026-05-08 06:15 | 36.92365 | 95.69366 | 39149 ft | 501 kts | 121° |
| 2026-05-08 06:15 | 36.89287 | 95.77187 | 39149 ft | 502 kts | 122° |
| 2026-05-08 06:16 | 36.86192 | 95.85001 | 39150 ft | 502 kts | 122° |
| 2026-05-08 06:16 | 36.83090 | 95.92807 | 39145 ft | 502 kts | 122° |
| 2026-05-08 06:17 | 36.78434 | 96.04493 | 39149 ft | 500 kts | 122° |
| 2026-05-08 06:17 | 36.75345 | 96.12274 | 39146 ft | 501 kts | 122° |
| 2026-05-08 06:18 | 36.72265 | 96.20060 | 39153 ft | 501 kts | 122° |
| 2026-05-08 06:18 | 36.69176 | 96.27847 | 39156 ft | 501 kts | 122° |
| 2026-05-08 06:19 | 36.66081 | 96.35624 | 39151 ft | 501 kts | 122° |
| 2026-05-08 06:19 | 36.62979 | 96.43399 | 39147 ft | 501 kts | 122° |
| 2026-05-08 06:20 | 36.59894 | 96.51113 | 39148 ft | 502 kts | 122° |
| 2026-05-08 06:20 | 36.56771 | 96.58899 | 39152 ft | 504 kts | 122° |
| 2026-05-08 06:21 | 36.53671 | 96.66732 | 39156 ft | 504 kts | 122° |
| 2026-05-08 06:21 | 36.50606 | 96.74558 | 39157 ft | 504 kts | 122° |
| 2026-05-08 06:22 | 36.47533 | 96.82375 | 39157 ft | 503 kts | 122° |
| 2026-05-08 06:22 | 36.44445 | 96.90196 | 39168 ft | 505 kts | 122° |
| 2026-05-08 06:23 | 36.41337 | 96.98035 | 39168 ft | 507 kts | 122° |
| 2026-05-08 06:23 | 36.38221 | 97.05878 | 39168 ft | 507 kts | 122° |
| 2026-05-08 06:24 | 36.35097 | 97.13725 | 39167 ft | 507 kts | 122° |
| 2026-05-08 06:24 | 36.31970 | 97.21560 | 39181 ft | 507 kts | 122° |
| 2026-05-08 06:25 | 36.28839 | 97.29383 | 39178 ft | 507 kts | 122° |
| 2026-05-08 06:25 | 36.25723 | 97.37150 | 39182 ft | 507 kts | 122° |
| 2026-05-08 06:26 | 36.22585 | 97.44954 | 39181 ft | 506 kts | 122° |
| 2026-05-08 06:26 | 36.19443 | 97.52751 | 39208 ft | 506 kts | 122° |
| 2026-05-08 06:27 | 36.16288 | 97.60558 | 39210 ft | 507 kts | 122° |
| 2026-05-08 06:27 | 36.13153 | 97.68395 | 39214 ft | 510 kts | 121° |
| 2026-05-08 06:28 | 36.10102 | 97.76339 | 39235 ft | 511 kts | 121° |
| 2026-05-08 06:28 | 36.07063 | 97.84275 | 39233 ft | 511 kts | 121° |
| 2026-05-08 06:29 | 36.04003 | 97.92193 | 39258 ft | 511 kts | 121° |
| 2026-05-08 06:29 | 36.00924 | 98.00108 | 39257 ft | 511 kts | 121° |
| 2026-05-08 06:30 | 35.97831 | 98.08031 | 39274 ft | 513 kts | 120° |
| 2026-05-08 06:30 | 35.94738 | 98.15934 | 39287 ft | 511 kts | 121° |
| 2026-05-08 06:31 | 35.91642 | 98.23829 | 39297 ft | 511 kts | 121° |
| 2026-05-08 06:31 | 35.88550 | 98.31713 | 39300 ft | 510 kts | 121° |
| 2026-05-08 06:32 | 35.85450 | 98.39579 | 39293 ft | 511 kts | 120° |
| 2026-05-08 06:32 | 35.82337 | 98.47456 | 39300 ft | 512 kts | 120° |
| 2026-05-08 06:33 | 35.79237 | 98.55293 | 39287 ft | 513 kts | 120° |
| 2026-05-08 06:33 | 35.76112 | 98.63174 | 39286 ft | 512 kts | 120° |
| 2026-05-08 06:34 | 35.72982 | 98.71052 | 39258 ft | 512 kts | 120° |
| 2026-05-08 06:34 | 35.69838 | 98.78933 | 39260 ft | 513 kts | 120° |
| 2026-05-08 06:35 | 35.66689 | 98.86808 | 39235 ft | 513 kts | 120° |
| 2026-05-08 06:35 | 35.63541 | 98.94667 | 39225 ft | 511 kts | 120° |
| 2026-05-08 06:36 | 35.60401 | 99.02513 | 39211 ft | 511 kts | 120° |
| 2026-05-08 06:36 | 35.57242 | 99.10341 | 39202 ft | 511 kts | 120° |
| 2026-05-08 06:37 | 35.54085 | 99.18154 | 39203 ft | 510 kts | 120° |
| 2026-05-08 06:37 | 35.50925 | 99.25965 | 39194 ft | 510 kts | 120° |
| 2026-05-08 06:38 | 35.47768 | 99.33754 | 39192 ft | 510 kts | 120° |
| 2026-05-08 06:38 | 35.44624 | 99.41490 | 39188 ft | 510 kts | 120° |
| 2026-05-08 06:39 | 35.41446 | 99.49285 | 39194 ft | 511 kts | 120° |
| 2026-05-08 06:39 | 35.38273 | 99.57060 | 39183 ft | 510 kts | 120° |
| 2026-05-08 06:40 | 35.35093 | 99.64834 | 39189 ft | 509 kts | 120° |
| 2026-05-08 06:40 | 35.31931 | 99.72581 | 39177 ft | 509 kts | 120° |
| 2026-05-08 06:41 | 35.28742 | 99.80319 | 39170 ft | 509 kts | 120° |
| 2026-05-08 06:41 | 35.26086 | 99.86740 | 39148 ft | 509 kts | 120° |
| 2026-05-08 06:42 | 35.22886 | 99.94464 | 39165 ft | 510 kts | 120° |
| 2026-05-08 06:42 | 35.19680 | 100.02204 | 39142 ft | 511 kts | 120° |
| 2026-05-08 06:43 | 35.16479 | 100.09941 | 39147 ft | 509 kts | 120° |
| 2026-05-08 06:43 | 35.13273 | 100.17659 | 39122 ft | 509 kts | 120° |
| 2026-05-08 06:44 | 35.10057 | 100.25377 | 39144 ft | 511 kts | 120° |
| 2026-05-08 06:44 | 35.06823 | 100.33114 | 39128 ft | 511 kts | 120° |
| 2026-05-08 06:45 | 35.03589 | 100.40836 | 39122 ft | 511 kts | 120° |
| 2026-05-08 06:45 | 35.00354 | 100.48550 | 39125 ft | 511 kts | 120° |
| 2026-05-08 06:46 | 34.97110 | 100.56255 | 39144 ft | 511 kts | 120° |
| 2026-05-08 06:46 | 34.93880 | 100.63908 | 39145 ft | 511 kts | 120° |
| 2026-05-08 06:47 | 34.90631 | 100.71603 | 39143 ft | 511 kts | 120° |
| 2026-05-08 06:47 | 34.87374 | 100.79295 | 39150 ft | 511 kts | 120° |
| 2026-05-08 06:48 | 34.84111 | 100.86986 | 39151 ft | 511 kts | 120° |
| 2026-05-08 06:48 | 34.80847 | 100.94657 | 39151 ft | 511 kts | 121° |
| 2026-05-08 06:49 | 34.77570 | 101.02334 | 39148 ft | 511 kts | 121° |
| 2026-05-08 06:49 | 34.74289 | 101.10010 | 39147 ft | 511 kts | 121° |
| 2026-05-08 06:50 | 34.71008 | 101.17667 | 39149 ft | 511 kts | 121° |
| 2026-05-08 06:50 | 34.67728 | 101.25312 | 39152 ft | 509 kts | 121° |
| 2026-05-08 06:51 | 34.64449 | 101.32937 | 39149 ft | 510 kts | 121° |
| 2026-05-08 06:51 | 34.61153 | 101.40572 | 39151 ft | 510 kts | 121° |
| 2026-05-08 06:52 | 34.57858 | 101.48190 | 39151 ft | 510 kts | 121° |
| 2026-05-08 06:52 | 34.54558 | 101.55812 | 39151 ft | 510 kts | 121° |
| 2026-05-08 06:53 | 34.51257 | 101.63417 | 39163 ft | 510 kts | 121° |
| 2026-05-08 06:53 | 34.47947 | 101.71023 | 39161 ft | 510 kts | 121° |
| 2026-05-08 06:54 | 34.44630 | 101.78626 | 39166 ft | 511 kts | 121° |
| 2026-05-08 06:54 | 34.41306 | 101.86231 | 39151 ft | 511 kts | 121° |
| 2026-05-08 06:55 | 34.37972 | 101.93832 | 39166 ft | 512 kts | 122° |
| 2026-05-08 06:55 | 34.34632 | 102.01440 | 39163 ft | 511 kts | 122° |
| 2026-05-08 06:56 | 34.31303 | 102.09042 | 39166 ft | 511 kts | 122° |
| 2026-05-08 06:56 | 34.27983 | 102.16587 | 39167 ft | 512 kts | 122° |
| 2026-05-08 06:57 | 34.24614 | 102.24180 | 39177 ft | 513 kts | 122° |
| 2026-05-08 06:57 | 34.21249 | 102.31766 | 39165 ft | 513 kts | 122° |
| 2026-05-08 06:58 | 34.17886 | 102.39361 | 39160 ft | 513 kts | 122° |
| 2026-05-08 06:58 | 34.14602 | 102.47036 | 39159 ft | 515 kts | 121° |
| 2026-05-08 06:59 | 34.11341 | 102.54734 | 39155 ft | 515 kts | 121° |
| 2026-05-08 06:59 | 34.08078 | 102.62436 | 39127 ft | 517 kts | 121° |
| 2026-05-08 07:00 | 34.04756 | 102.70150 | 39151 ft | 521 kts | 121° |
| 2026-05-08 07:00 | 34.01401 | 102.77915 | 39137 ft | 523 kts | 122° |
| 2026-05-08 07:01 | 33.98038 | 102.85705 | 39141 ft | 525 kts | 121° |
| 2026-05-08 07:01 | 33.94651 | 102.93534 | 39135 ft | 529 kts | 121° |